<?xml version="1.0" encoding="UTF-8" standalone="no" ?>
<gpx xmlns="http://www.topografix.com/GPX/1/1" xmlns:xsi="http://www.w3.org/2001/XMLSchema-instance" xsi:schemaLocation="http://www.topografix.com/GPX/1/1 http://www.topografix.com/GPX/1/1/gpx.xsd" version="1.1" creator="VisuGPX - https://www.visugpx.com">
  <metadata>
    <name>Sevres Anxaumont</name>
    <desc><![CDATA[Randonnée en boucle de 6,6Km , très faible dénivelé]]></desc>
  </metadata>
  <trk>
    <name><![CDATA[Sevres Anxaumont_1]]></name>
    <extensions>
      <line xmlns="http://www.topografix.com/GPX/gpx_style/0/2">
        <color>0000FF</color>
        <width>4</width>
      </line>
    </extensions>
    <trkseg>
      <trkpt lat="46.57026" lon="0.46503">
        <ele>117.24</ele>
        <time>2021-11-28T13:01:49Z</time>
      </trkpt>
      <trkpt lat="46.57026" lon="0.46503">
        <ele>117.24</ele>
        <time>2021-11-28T13:01:49Z</time>
      </trkpt>
      <trkpt lat="46.57021" lon="0.46496">
        <ele>117.962</ele>
        <time>2021-11-28T13:01:59Z</time>
      </trkpt>
      <trkpt lat="46.57015" lon="0.46493">
        <ele>118.571</ele>
        <time>2021-11-28T13:02:14Z</time>
      </trkpt>
      <trkpt lat="46.57009" lon="0.46488">
        <ele>119.07</ele>
        <time>2021-11-28T13:02:24Z</time>
      </trkpt>
      <trkpt lat="46.57003" lon="0.46482">
        <ele>119.982</ele>
        <time>2021-11-28T13:02:35Z</time>
      </trkpt>
      <trkpt lat="46.56997" lon="0.46478">
        <ele>120.65</ele>
        <time>2021-11-28T13:02:43Z</time>
      </trkpt>
      <trkpt lat="46.56991" lon="0.46472">
        <ele>121.089</ele>
        <time>2021-11-28T13:02:48Z</time>
      </trkpt>
      <trkpt lat="46.56985" lon="0.46465">
        <ele>121.696</ele>
        <time>2021-11-28T13:02:54Z</time>
      </trkpt>
      <trkpt lat="46.56978" lon="0.4646">
        <ele>122.212</ele>
        <time>2021-11-28T13:02:59Z</time>
      </trkpt>
      <trkpt lat="46.56972" lon="0.46453">
        <ele>122.856</ele>
        <time>2021-11-28T13:03:05Z</time>
      </trkpt>
      <trkpt lat="46.56976" lon="0.46443">
        <ele>123.275</ele>
        <time>2021-11-28T13:03:11Z</time>
      </trkpt>
      <trkpt lat="46.56978" lon="0.46433">
        <ele>123.483</ele>
        <time>2021-11-28T13:03:17Z</time>
      </trkpt>
      <trkpt lat="46.56979" lon="0.46423">
        <ele>123.556</ele>
        <time>2021-11-28T13:03:22Z</time>
      </trkpt>
      <trkpt lat="46.5698" lon="0.46412">
        <ele>123.569</ele>
        <time>2021-11-28T13:03:27Z</time>
      </trkpt>
      <trkpt lat="46.56981" lon="0.46402">
        <ele>123.553</ele>
        <time>2021-11-28T13:03:32Z</time>
      </trkpt>
      <trkpt lat="46.5698" lon="0.46391">
        <ele>123.507</ele>
        <time>2021-11-28T13:03:37Z</time>
      </trkpt>
      <trkpt lat="46.56977" lon="0.46378">
        <ele>123.458</ele>
        <time>2021-11-28T13:03:42Z</time>
      </trkpt>
      <trkpt lat="46.56975" lon="0.46367">
        <ele>123.447</ele>
        <time>2021-11-28T13:03:47Z</time>
      </trkpt>
      <trkpt lat="46.56971" lon="0.46359">
        <ele>123.433</ele>
        <time>2021-11-28T13:03:53Z</time>
      </trkpt>
      <trkpt lat="46.56968" lon="0.4635">
        <ele>123.411</ele>
        <time>2021-11-28T13:04:00Z</time>
      </trkpt>
      <trkpt lat="46.56965" lon="0.46342">
        <ele>123.419</ele>
        <time>2021-11-28T13:04:06Z</time>
      </trkpt>
      <trkpt lat="46.56961" lon="0.46333">
        <ele>123.444</ele>
        <time>2021-11-28T13:04:12Z</time>
      </trkpt>
      <trkpt lat="46.56958" lon="0.46324">
        <ele>123.496</ele>
        <time>2021-11-28T13:04:17Z</time>
      </trkpt>
      <trkpt lat="46.56955" lon="0.46312">
        <ele>123.575</ele>
        <time>2021-11-28T13:04:23Z</time>
      </trkpt>
      <trkpt lat="46.56952" lon="0.46302">
        <ele>123.656</ele>
        <time>2021-11-28T13:04:28Z</time>
      </trkpt>
      <trkpt lat="46.56947" lon="0.46293">
        <ele>123.771</ele>
        <time>2021-11-28T13:04:34Z</time>
      </trkpt>
      <trkpt lat="46.56943" lon="0.46285">
        <ele>123.922</ele>
        <time>2021-11-28T13:04:41Z</time>
      </trkpt>
      <trkpt lat="46.56939" lon="0.46276">
        <ele>124.124</ele>
        <time>2021-11-28T13:04:49Z</time>
      </trkpt>
      <trkpt lat="46.56935" lon="0.46267">
        <ele>124.295</ele>
        <time>2021-11-28T13:04:55Z</time>
      </trkpt>
      <trkpt lat="46.56932" lon="0.46257">
        <ele>124.518</ele>
        <time>2021-11-28T13:05:02Z</time>
      </trkpt>
      <trkpt lat="46.56928" lon="0.46248">
        <ele>124.761</ele>
        <time>2021-11-28T13:05:09Z</time>
      </trkpt>
      <trkpt lat="46.56925" lon="0.46238">
        <ele>125.042</ele>
        <time>2021-11-28T13:05:17Z</time>
      </trkpt>
      <trkpt lat="46.56922" lon="0.46229">
        <ele>125.243</ele>
        <time>2021-11-28T13:05:23Z</time>
      </trkpt>
      <trkpt lat="46.56919" lon="0.46221">
        <ele>125.412</ele>
        <time>2021-11-28T13:05:28Z</time>
      </trkpt>
      <trkpt lat="46.56915" lon="0.46212">
        <ele>125.623</ele>
        <time>2021-11-28T13:05:34Z</time>
      </trkpt>
      <trkpt lat="46.56912" lon="0.46203">
        <ele>125.837</ele>
        <time>2021-11-28T13:05:40Z</time>
      </trkpt>
      <trkpt lat="46.56909" lon="0.46193">
        <ele>126.07</ele>
        <time>2021-11-28T13:05:47Z</time>
      </trkpt>
      <trkpt lat="46.56905" lon="0.46183">
        <ele>126.25</ele>
        <time>2021-11-28T13:05:53Z</time>
      </trkpt>
      <trkpt lat="46.56901" lon="0.46173">
        <ele>126.414</ele>
        <time>2021-11-28T13:05:59Z</time>
      </trkpt>
      <trkpt lat="46.56898" lon="0.46164">
        <ele>126.587</ele>
        <time>2021-11-28T13:06:06Z</time>
      </trkpt>
      <trkpt lat="46.56895" lon="0.46155">
        <ele>126.706</ele>
        <time>2021-11-28T13:06:12Z</time>
      </trkpt>
      <trkpt lat="46.56892" lon="0.46146">
        <ele>126.835</ele>
        <time>2021-11-28T13:06:19Z</time>
      </trkpt>
      <trkpt lat="46.56888" lon="0.46138">
        <ele>126.938</ele>
        <time>2021-11-28T13:06:25Z</time>
      </trkpt>
      <trkpt lat="46.56884" lon="0.4613">
        <ele>127.044</ele>
        <time>2021-11-28T13:06:32Z</time>
      </trkpt>
      <trkpt lat="46.56881" lon="0.46121">
        <ele>127.118</ele>
        <time>2021-11-28T13:06:38Z</time>
      </trkpt>
      <trkpt lat="46.56877" lon="0.46112">
        <ele>127.171</ele>
        <time>2021-11-28T13:06:43Z</time>
      </trkpt>
      <trkpt lat="46.56874" lon="0.46104">
        <ele>127.222</ele>
        <time>2021-11-28T13:06:49Z</time>
      </trkpt>
      <trkpt lat="46.56871" lon="0.46095">
        <ele>127.27</ele>
        <time>2021-11-28T13:06:55Z</time>
      </trkpt>
      <trkpt lat="46.56868" lon="0.46086">
        <ele>127.316</ele>
        <time>2021-11-28T13:07:01Z</time>
      </trkpt>
      <trkpt lat="46.56865" lon="0.46077">
        <ele>127.372</ele>
        <time>2021-11-28T13:07:08Z</time>
      </trkpt>
      <trkpt lat="46.56862" lon="0.46069">
        <ele>127.435</ele>
        <time>2021-11-28T13:07:14Z</time>
      </trkpt>
      <trkpt lat="46.56857" lon="0.4606">
        <ele>127.501</ele>
        <time>2021-11-28T13:07:20Z</time>
      </trkpt>
      <trkpt lat="46.56852" lon="0.46053">
        <ele>127.577</ele>
        <time>2021-11-28T13:07:27Z</time>
      </trkpt>
      <trkpt lat="46.56846" lon="0.46048">
        <ele>127.641</ele>
        <time>2021-11-28T13:07:33Z</time>
      </trkpt>
      <trkpt lat="46.56841" lon="0.46041">
        <ele>127.702</ele>
        <time>2021-11-28T13:07:39Z</time>
      </trkpt>
      <trkpt lat="46.56834" lon="0.46035">
        <ele>127.771</ele>
        <time>2021-11-28T13:07:46Z</time>
      </trkpt>
      <trkpt lat="46.56829" lon="0.4603">
        <ele>127.829</ele>
        <time>2021-11-28T13:07:52Z</time>
      </trkpt>
      <trkpt lat="46.56823" lon="0.46023">
        <ele>127.884</ele>
        <time>2021-11-28T13:07:58Z</time>
      </trkpt>
      <trkpt lat="46.56819" lon="0.46015">
        <ele>127.936</ele>
        <time>2021-11-28T13:08:04Z</time>
      </trkpt>
      <trkpt lat="46.56813" lon="0.46009">
        <ele>127.984</ele>
        <time>2021-11-28T13:08:10Z</time>
      </trkpt>
      <trkpt lat="46.56808" lon="0.46">
        <ele>128.035</ele>
        <time>2021-11-28T13:08:17Z</time>
      </trkpt>
      <trkpt lat="46.56803" lon="0.45992">
        <ele>128.078</ele>
        <time>2021-11-28T13:08:23Z</time>
      </trkpt>
      <trkpt lat="46.56799" lon="0.45984">
        <ele>128.132</ele>
        <time>2021-11-28T13:08:31Z</time>
      </trkpt>
      <trkpt lat="46.56794" lon="0.45975">
        <ele>128.181</ele>
        <time>2021-11-28T13:08:38Z</time>
      </trkpt>
      <trkpt lat="46.5679" lon="0.45967">
        <ele>128.228</ele>
        <time>2021-11-28T13:08:44Z</time>
      </trkpt>
      <trkpt lat="46.56787" lon="0.45958">
        <ele>128.279</ele>
        <time>2021-11-28T13:08:50Z</time>
      </trkpt>
      <trkpt lat="46.56783" lon="0.4595">
        <ele>128.328</ele>
        <time>2021-11-28T13:08:56Z</time>
      </trkpt>
      <trkpt lat="46.56779" lon="0.45941">
        <ele>128.38</ele>
        <time>2021-11-28T13:09:02Z</time>
      </trkpt>
      <trkpt lat="46.56775" lon="0.45933">
        <ele>128.435</ele>
        <time>2021-11-28T13:09:08Z</time>
      </trkpt>
      <trkpt lat="46.56772" lon="0.45924">
        <ele>128.494</ele>
        <time>2021-11-28T13:09:14Z</time>
      </trkpt>
      <trkpt lat="46.56769" lon="0.45915">
        <ele>128.561</ele>
        <time>2021-11-28T13:09:20Z</time>
      </trkpt>
      <trkpt lat="46.56766" lon="0.45905">
        <ele>128.634</ele>
        <time>2021-11-28T13:09:26Z</time>
      </trkpt>
      <trkpt lat="46.56764" lon="0.45896">
        <ele>128.723</ele>
        <time>2021-11-28T13:09:33Z</time>
      </trkpt>
      <trkpt lat="46.56761" lon="0.45887">
        <ele>128.801</ele>
        <time>2021-11-28T13:09:39Z</time>
      </trkpt>
      <trkpt lat="46.56759" lon="0.45878">
        <ele>128.879</ele>
        <time>2021-11-28T13:09:45Z</time>
      </trkpt>
      <trkpt lat="46.56756" lon="0.45868">
        <ele>128.969</ele>
        <time>2021-11-28T13:09:52Z</time>
      </trkpt>
      <trkpt lat="46.56754" lon="0.45858">
        <ele>129.098</ele>
        <time>2021-11-28T13:10:02Z</time>
      </trkpt>
      <trkpt lat="46.56751" lon="0.4585">
        <ele>129.205</ele>
        <time>2021-11-28T13:10:10Z</time>
      </trkpt>
      <trkpt lat="46.56748" lon="0.45841">
        <ele>129.313</ele>
        <time>2021-11-28T13:10:18Z</time>
      </trkpt>
      <trkpt lat="46.56744" lon="0.45832">
        <ele>129.411</ele>
        <time>2021-11-28T13:10:25Z</time>
      </trkpt>
      <trkpt lat="46.56741" lon="0.45823">
        <ele>129.513</ele>
        <time>2021-11-28T13:10:32Z</time>
      </trkpt>
      <trkpt lat="46.56737" lon="0.45815">
        <ele>129.613</ele>
        <time>2021-11-28T13:10:39Z</time>
      </trkpt>
      <trkpt lat="46.56733" lon="0.45806">
        <ele>129.709</ele>
        <time>2021-11-28T13:10:46Z</time>
      </trkpt>
      <trkpt lat="46.56729" lon="0.45799">
        <ele>129.808</ele>
        <time>2021-11-28T13:10:54Z</time>
      </trkpt>
      <trkpt lat="46.56724" lon="0.45791">
        <ele>129.886</ele>
        <time>2021-11-28T13:11:01Z</time>
      </trkpt>
      <trkpt lat="46.56719" lon="0.45784">
        <ele>129.957</ele>
        <time>2021-11-28T13:11:08Z</time>
      </trkpt>
      <trkpt lat="46.56714" lon="0.45778">
        <ele>130.045</ele>
        <time>2021-11-28T13:11:18Z</time>
      </trkpt>
      <trkpt lat="46.56715" lon="0.45769">
        <ele>130.164</ele>
        <time>2021-11-28T13:11:35Z</time>
      </trkpt>
      <trkpt lat="46.56717" lon="0.4576">
        <ele>130.201</ele>
        <time>2021-11-28T13:11:41Z</time>
      </trkpt>
      <trkpt lat="46.56721" lon="0.45751">
        <ele>130.232</ele>
        <time>2021-11-28T13:11:47Z</time>
      </trkpt>
      <trkpt lat="46.56724" lon="0.45743">
        <ele>130.259</ele>
        <time>2021-11-28T13:11:54Z</time>
      </trkpt>
      <trkpt lat="46.56728" lon="0.45734">
        <ele>130.276</ele>
        <time>2021-11-28T13:12:00Z</time>
      </trkpt>
      <trkpt lat="46.56733" lon="0.45725">
        <ele>130.294</ele>
        <time>2021-11-28T13:12:07Z</time>
      </trkpt>
      <trkpt lat="46.56736" lon="0.45717">
        <ele>130.306</ele>
        <time>2021-11-28T13:12:13Z</time>
      </trkpt>
      <trkpt lat="46.5674" lon="0.45709">
        <ele>130.318</ele>
        <time>2021-11-28T13:12:19Z</time>
      </trkpt>
      <trkpt lat="46.56746" lon="0.45701">
        <ele>130.334</ele>
        <time>2021-11-28T13:12:26Z</time>
      </trkpt>
      <trkpt lat="46.56749" lon="0.45691">
        <ele>130.35</ele>
        <time>2021-11-28T13:12:33Z</time>
      </trkpt>
      <trkpt lat="46.56753" lon="0.45683">
        <ele>130.368</ele>
        <time>2021-11-28T13:12:40Z</time>
      </trkpt>
      <trkpt lat="46.56757" lon="0.45675">
        <ele>130.383</ele>
        <time>2021-11-28T13:12:47Z</time>
      </trkpt>
      <trkpt lat="46.5676" lon="0.45667">
        <ele>130.395</ele>
        <time>2021-11-28T13:12:53Z</time>
      </trkpt>
      <trkpt lat="46.56764" lon="0.45658">
        <ele>130.41</ele>
        <time>2021-11-28T13:13:00Z</time>
      </trkpt>
      <trkpt lat="46.56767" lon="0.45649">
        <ele>130.423</ele>
        <time>2021-11-28T13:13:06Z</time>
      </trkpt>
      <trkpt lat="46.5677" lon="0.45641">
        <ele>130.433</ele>
        <time>2021-11-28T13:13:12Z</time>
      </trkpt>
      <trkpt lat="46.56774" lon="0.45632">
        <ele>130.436</ele>
        <time>2021-11-28T13:13:19Z</time>
      </trkpt>
      <trkpt lat="46.56779" lon="0.45623">
        <ele>130.432</ele>
        <time>2021-11-28T13:13:26Z</time>
      </trkpt>
      <trkpt lat="46.56783" lon="0.45614">
        <ele>130.422</ele>
        <time>2021-11-28T13:13:33Z</time>
      </trkpt>
      <trkpt lat="46.56785" lon="0.45605">
        <ele>130.411</ele>
        <time>2021-11-28T13:13:39Z</time>
      </trkpt>
      <trkpt lat="46.56788" lon="0.45596">
        <ele>130.404</ele>
        <time>2021-11-28T13:13:45Z</time>
      </trkpt>
      <trkpt lat="46.56791" lon="0.45587">
        <ele>130.402</ele>
        <time>2021-11-28T13:13:51Z</time>
      </trkpt>
      <trkpt lat="46.56794" lon="0.45578">
        <ele>130.402</ele>
        <time>2021-11-28T13:13:57Z</time>
      </trkpt>
      <trkpt lat="46.56797" lon="0.45569">
        <ele>130.402</ele>
        <time>2021-11-28T13:14:04Z</time>
      </trkpt>
      <trkpt lat="46.568" lon="0.4556">
        <ele>130.398</ele>
        <time>2021-11-28T13:14:11Z</time>
      </trkpt>
      <trkpt lat="46.56803" lon="0.4555">
        <ele>130.393</ele>
        <time>2021-11-28T13:14:18Z</time>
      </trkpt>
      <trkpt lat="46.56807" lon="0.45542">
        <ele>130.386</ele>
        <time>2021-11-28T13:14:25Z</time>
      </trkpt>
      <trkpt lat="46.56811" lon="0.45533">
        <ele>130.382</ele>
        <time>2021-11-28T13:14:31Z</time>
      </trkpt>
      <trkpt lat="46.56815" lon="0.45525">
        <ele>130.376</ele>
        <time>2021-11-28T13:14:38Z</time>
      </trkpt>
      <trkpt lat="46.56817" lon="0.45516">
        <ele>130.371</ele>
        <time>2021-11-28T13:14:44Z</time>
      </trkpt>
      <trkpt lat="46.5682" lon="0.45506">
        <ele>130.363</ele>
        <time>2021-11-28T13:14:50Z</time>
      </trkpt>
      <trkpt lat="46.56824" lon="0.45498">
        <ele>130.352</ele>
        <time>2021-11-28T13:14:57Z</time>
      </trkpt>
      <trkpt lat="46.56826" lon="0.45488">
        <ele>130.345</ele>
        <time>2021-11-28T13:15:03Z</time>
      </trkpt>
      <trkpt lat="46.56828" lon="0.45478">
        <ele>130.338</ele>
        <time>2021-11-28T13:15:10Z</time>
      </trkpt>
      <trkpt lat="46.56831" lon="0.45469">
        <ele>130.33</ele>
        <time>2021-11-28T13:15:17Z</time>
      </trkpt>
      <trkpt lat="46.56834" lon="0.4546">
        <ele>130.319</ele>
        <time>2021-11-28T13:15:25Z</time>
      </trkpt>
      <trkpt lat="46.56836" lon="0.45451">
        <ele>130.306</ele>
        <time>2021-11-28T13:15:31Z</time>
      </trkpt>
      <trkpt lat="46.56836" lon="0.45441">
        <ele>130.29</ele>
        <time>2021-11-28T13:15:37Z</time>
      </trkpt>
      <trkpt lat="46.56838" lon="0.4543">
        <ele>130.269</ele>
        <time>2021-11-28T13:15:44Z</time>
      </trkpt>
      <trkpt lat="46.5684" lon="0.4542">
        <ele>130.247</ele>
        <time>2021-11-28T13:15:50Z</time>
      </trkpt>
      <trkpt lat="46.56841" lon="0.45409">
        <ele>130.223</ele>
        <time>2021-11-28T13:15:56Z</time>
      </trkpt>
      <trkpt lat="46.56841" lon="0.45399">
        <ele>130.2</ele>
        <time>2021-11-28T13:16:02Z</time>
      </trkpt>
      <trkpt lat="46.56843" lon="0.4539">
        <ele>130.175</ele>
        <time>2021-11-28T13:16:09Z</time>
      </trkpt>
      <trkpt lat="46.56844" lon="0.4538">
        <ele>130.153</ele>
        <time>2021-11-28T13:16:15Z</time>
      </trkpt>
      <trkpt lat="46.56845" lon="0.45371">
        <ele>130.132</ele>
        <time>2021-11-28T13:16:21Z</time>
      </trkpt>
      <trkpt lat="46.56846" lon="0.45361">
        <ele>130.112</ele>
        <time>2021-11-28T13:16:27Z</time>
      </trkpt>
      <trkpt lat="46.56847" lon="0.45351">
        <ele>130.093</ele>
        <time>2021-11-28T13:16:33Z</time>
      </trkpt>
      <trkpt lat="46.56849" lon="0.45341">
        <ele>130.072</ele>
        <time>2021-11-28T13:16:40Z</time>
      </trkpt>
      <trkpt lat="46.56851" lon="0.45332">
        <ele>130.053</ele>
        <time>2021-11-28T13:16:47Z</time>
      </trkpt>
      <trkpt lat="46.56851" lon="0.45322">
        <ele>130.036</ele>
        <time>2021-11-28T13:16:53Z</time>
      </trkpt>
      <trkpt lat="46.56852" lon="0.45312">
        <ele>130.015</ele>
        <time>2021-11-28T13:16:59Z</time>
      </trkpt>
      <trkpt lat="46.56854" lon="0.45301">
        <ele>129.992</ele>
        <time>2021-11-28T13:17:06Z</time>
      </trkpt>
      <trkpt lat="46.56856" lon="0.45291">
        <ele>129.971</ele>
        <time>2021-11-28T13:17:13Z</time>
      </trkpt>
      <trkpt lat="46.56857" lon="0.45281">
        <ele>129.956</ele>
        <time>2021-11-28T13:17:19Z</time>
      </trkpt>
      <trkpt lat="46.56858" lon="0.4527">
        <ele>129.943</ele>
        <time>2021-11-28T13:17:26Z</time>
      </trkpt>
      <trkpt lat="46.56859" lon="0.45261">
        <ele>129.935</ele>
        <time>2021-11-28T13:17:32Z</time>
      </trkpt>
      <trkpt lat="46.5686" lon="0.4525">
        <ele>129.928</ele>
        <time>2021-11-28T13:17:38Z</time>
      </trkpt>
      <trkpt lat="46.56861" lon="0.4524">
        <ele>129.92</ele>
        <time>2021-11-28T13:17:45Z</time>
      </trkpt>
      <trkpt lat="46.56863" lon="0.45229">
        <ele>129.912</ele>
        <time>2021-11-28T13:17:52Z</time>
      </trkpt>
      <trkpt lat="46.56865" lon="0.45219">
        <ele>129.904</ele>
        <time>2021-11-28T13:17:59Z</time>
      </trkpt>
      <trkpt lat="46.56865" lon="0.45209">
        <ele>129.898</ele>
        <time>2021-11-28T13:18:05Z</time>
      </trkpt>
      <trkpt lat="46.56867" lon="0.45199">
        <ele>129.892</ele>
        <time>2021-11-28T13:18:11Z</time>
      </trkpt>
      <trkpt lat="46.56868" lon="0.45188">
        <ele>129.883</ele>
        <time>2021-11-28T13:18:18Z</time>
      </trkpt>
      <trkpt lat="46.5687" lon="0.45179">
        <ele>129.874</ele>
        <time>2021-11-28T13:18:25Z</time>
      </trkpt>
      <trkpt lat="46.56871" lon="0.45168">
        <ele>129.866</ele>
        <time>2021-11-28T13:18:32Z</time>
      </trkpt>
      <trkpt lat="46.56873" lon="0.45159">
        <ele>129.862</ele>
        <time>2021-11-28T13:18:38Z</time>
      </trkpt>
      <trkpt lat="46.56876" lon="0.45149">
        <ele>129.862</ele>
        <time>2021-11-28T13:18:44Z</time>
      </trkpt>
      <trkpt lat="46.5688" lon="0.45141">
        <ele>129.865</ele>
        <time>2021-11-28T13:18:50Z</time>
      </trkpt>
      <trkpt lat="46.56884" lon="0.45132">
        <ele>129.872</ele>
        <time>2021-11-28T13:18:58Z</time>
      </trkpt>
      <trkpt lat="46.56889" lon="0.45124">
        <ele>129.878</ele>
        <time>2021-11-28T13:19:05Z</time>
      </trkpt>
      <trkpt lat="46.56893" lon="0.45116">
        <ele>129.879</ele>
        <time>2021-11-28T13:19:13Z</time>
      </trkpt>
      <trkpt lat="46.56897" lon="0.45108">
        <ele>129.877</ele>
        <time>2021-11-28T13:19:19Z</time>
      </trkpt>
      <trkpt lat="46.56901" lon="0.45099">
        <ele>129.869</ele>
        <time>2021-11-28T13:19:27Z</time>
      </trkpt>
      <trkpt lat="46.56905" lon="0.45091">
        <ele>129.861</ele>
        <time>2021-11-28T13:19:34Z</time>
      </trkpt>
      <trkpt lat="46.56909" lon="0.45082">
        <ele>129.854</ele>
        <time>2021-11-28T13:19:41Z</time>
      </trkpt>
      <trkpt lat="46.56913" lon="0.45074">
        <ele>129.847</ele>
        <time>2021-11-28T13:19:48Z</time>
      </trkpt>
      <trkpt lat="46.56917" lon="0.45067">
        <ele>129.839</ele>
        <time>2021-11-28T13:19:55Z</time>
      </trkpt>
      <trkpt lat="46.56921" lon="0.45059">
        <ele>129.834</ele>
        <time>2021-11-28T13:20:02Z</time>
      </trkpt>
      <trkpt lat="46.56925" lon="0.45051">
        <ele>129.833</ele>
        <time>2021-11-28T13:20:08Z</time>
      </trkpt>
      <trkpt lat="46.56928" lon="0.45043">
        <ele>129.831</ele>
        <time>2021-11-28T13:20:14Z</time>
      </trkpt>
      <trkpt lat="46.56932" lon="0.45033">
        <ele>129.828</ele>
        <time>2021-11-28T13:20:21Z</time>
      </trkpt>
      <trkpt lat="46.56936" lon="0.45025">
        <ele>129.829</ele>
        <time>2021-11-28T13:20:28Z</time>
      </trkpt>
      <trkpt lat="46.5694" lon="0.45016">
        <ele>129.831</ele>
        <time>2021-11-28T13:20:35Z</time>
      </trkpt>
      <trkpt lat="46.56944" lon="0.45008">
        <ele>129.833</ele>
        <time>2021-11-28T13:20:42Z</time>
      </trkpt>
      <trkpt lat="46.56948" lon="0.45001">
        <ele>129.835</ele>
        <time>2021-11-28T13:20:49Z</time>
      </trkpt>
      <trkpt lat="46.56953" lon="0.44994">
        <ele>129.839</ele>
        <time>2021-11-28T13:20:56Z</time>
      </trkpt>
      <trkpt lat="46.56957" lon="0.44985">
        <ele>129.843</ele>
        <time>2021-11-28T13:21:03Z</time>
      </trkpt>
      <trkpt lat="46.56961" lon="0.44977">
        <ele>129.847</ele>
        <time>2021-11-28T13:21:10Z</time>
      </trkpt>
      <trkpt lat="46.56965" lon="0.44969">
        <ele>129.853</ele>
        <time>2021-11-28T13:21:18Z</time>
      </trkpt>
      <trkpt lat="46.5697" lon="0.44961">
        <ele>129.861</ele>
        <time>2021-11-28T13:21:25Z</time>
      </trkpt>
      <trkpt lat="46.56975" lon="0.44954">
        <ele>129.872</ele>
        <time>2021-11-28T13:21:31Z</time>
      </trkpt>
      <trkpt lat="46.5698" lon="0.44947">
        <ele>129.887</ele>
        <time>2021-11-28T13:21:38Z</time>
      </trkpt>
      <trkpt lat="46.56985" lon="0.4494">
        <ele>129.898</ele>
        <time>2021-11-28T13:21:45Z</time>
      </trkpt>
      <trkpt lat="46.56989" lon="0.44933">
        <ele>129.905</ele>
        <time>2021-11-28T13:21:52Z</time>
      </trkpt>
      <trkpt lat="46.56994" lon="0.44926">
        <ele>129.91</ele>
        <time>2021-11-28T13:21:59Z</time>
      </trkpt>
      <trkpt lat="46.57" lon="0.4492">
        <ele>129.909</ele>
        <time>2021-11-28T13:22:06Z</time>
      </trkpt>
      <trkpt lat="46.57005" lon="0.44913">
        <ele>129.905</ele>
        <time>2021-11-28T13:22:12Z</time>
      </trkpt>
      <trkpt lat="46.5701" lon="0.44905">
        <ele>129.9</ele>
        <time>2021-11-28T13:22:18Z</time>
      </trkpt>
      <trkpt lat="46.57014" lon="0.44897">
        <ele>129.896</ele>
        <time>2021-11-28T13:22:25Z</time>
      </trkpt>
      <trkpt lat="46.5702" lon="0.4489">
        <ele>129.897</ele>
        <time>2021-11-28T13:22:33Z</time>
      </trkpt>
      <trkpt lat="46.57025" lon="0.44883">
        <ele>129.895</ele>
        <time>2021-11-28T13:22:41Z</time>
      </trkpt>
      <trkpt lat="46.5703" lon="0.44877">
        <ele>129.894</ele>
        <time>2021-11-28T13:22:47Z</time>
      </trkpt>
      <trkpt lat="46.57036" lon="0.44871">
        <ele>129.894</ele>
        <time>2021-11-28T13:22:55Z</time>
      </trkpt>
      <trkpt lat="46.57042" lon="0.44866">
        <ele>129.89</ele>
        <time>2021-11-28T13:23:01Z</time>
      </trkpt>
      <trkpt lat="46.57048" lon="0.44861">
        <ele>129.891</ele>
        <time>2021-11-28T13:23:07Z</time>
      </trkpt>
      <trkpt lat="46.57054" lon="0.44856">
        <ele>129.895</ele>
        <time>2021-11-28T13:23:15Z</time>
      </trkpt>
      <trkpt lat="46.57058" lon="0.44847">
        <ele>129.899</ele>
        <time>2021-11-28T13:23:23Z</time>
      </trkpt>
      <trkpt lat="46.57062" lon="0.44839">
        <ele>129.896</ele>
        <time>2021-11-28T13:23:30Z</time>
      </trkpt>
      <trkpt lat="46.57067" lon="0.44833">
        <ele>129.886</ele>
        <time>2021-11-28T13:23:37Z</time>
      </trkpt>
      <trkpt lat="46.57071" lon="0.44824">
        <ele>129.869</ele>
        <time>2021-11-28T13:23:44Z</time>
      </trkpt>
      <trkpt lat="46.57075" lon="0.44816">
        <ele>129.851</ele>
        <time>2021-11-28T13:23:50Z</time>
      </trkpt>
      <trkpt lat="46.57078" lon="0.44807">
        <ele>129.832</ele>
        <time>2021-11-28T13:23:56Z</time>
      </trkpt>
      <trkpt lat="46.57078" lon="0.44797">
        <ele>129.815</ele>
        <time>2021-11-28T13:24:02Z</time>
      </trkpt>
      <trkpt lat="46.5708" lon="0.44787">
        <ele>129.796</ele>
        <time>2021-11-28T13:24:09Z</time>
      </trkpt>
      <trkpt lat="46.57082" lon="0.44777">
        <ele>129.776</ele>
        <time>2021-11-28T13:24:16Z</time>
      </trkpt>
      <trkpt lat="46.57084" lon="0.44768">
        <ele>129.755</ele>
        <time>2021-11-28T13:24:23Z</time>
      </trkpt>
      <trkpt lat="46.57085" lon="0.44759">
        <ele>129.737</ele>
        <time>2021-11-28T13:24:29Z</time>
      </trkpt>
      <trkpt lat="46.57087" lon="0.44749">
        <ele>129.718</ele>
        <time>2021-11-28T13:24:35Z</time>
      </trkpt>
      <trkpt lat="46.57089" lon="0.44739">
        <ele>129.703</ele>
        <time>2021-11-28T13:24:41Z</time>
      </trkpt>
      <trkpt lat="46.57091" lon="0.44729">
        <ele>129.683</ele>
        <time>2021-11-28T13:24:48Z</time>
      </trkpt>
      <trkpt lat="46.57095" lon="0.44721">
        <ele>129.666</ele>
        <time>2021-11-28T13:24:56Z</time>
      </trkpt>
      <trkpt lat="46.57097" lon="0.4471">
        <ele>129.654</ele>
        <time>2021-11-28T13:25:04Z</time>
      </trkpt>
      <trkpt lat="46.571" lon="0.44701">
        <ele>129.645</ele>
        <time>2021-11-28T13:25:10Z</time>
      </trkpt>
      <trkpt lat="46.57103" lon="0.44691">
        <ele>129.634</ele>
        <time>2021-11-28T13:25:17Z</time>
      </trkpt>
      <trkpt lat="46.57105" lon="0.44682">
        <ele>129.618</ele>
        <time>2021-11-28T13:25:24Z</time>
      </trkpt>
      <trkpt lat="46.57107" lon="0.44672">
        <ele>129.595</ele>
        <time>2021-11-28T13:25:31Z</time>
      </trkpt>
      <trkpt lat="46.57109" lon="0.44662">
        <ele>129.572</ele>
        <time>2021-11-28T13:25:37Z</time>
      </trkpt>
      <trkpt lat="46.57109" lon="0.44652">
        <ele>129.544</ele>
        <time>2021-11-28T13:25:43Z</time>
      </trkpt>
      <trkpt lat="46.57113" lon="0.44644">
        <ele>129.503</ele>
        <time>2021-11-28T13:25:51Z</time>
      </trkpt>
      <trkpt lat="46.57117" lon="0.44636">
        <ele>129.459</ele>
        <time>2021-11-28T13:25:59Z</time>
      </trkpt>
      <trkpt lat="46.57121" lon="0.44629">
        <ele>129.419</ele>
        <time>2021-11-28T13:26:07Z</time>
      </trkpt>
      <trkpt lat="46.57127" lon="0.44623">
        <ele>129.388</ele>
        <time>2021-11-28T13:26:13Z</time>
      </trkpt>
      <trkpt lat="46.57131" lon="0.44614">
        <ele>129.337</ele>
        <time>2021-11-28T13:26:21Z</time>
      </trkpt>
      <trkpt lat="46.57133" lon="0.44605">
        <ele>129.293</ele>
        <time>2021-11-28T13:26:27Z</time>
      </trkpt>
      <trkpt lat="46.57139" lon="0.44598">
        <ele>129.247</ele>
        <time>2021-11-28T13:26:33Z</time>
      </trkpt>
      <trkpt lat="46.57143" lon="0.4459">
        <ele>129.194</ele>
        <time>2021-11-28T13:26:40Z</time>
      </trkpt>
      <trkpt lat="46.57148" lon="0.44583">
        <ele>129.13</ele>
        <time>2021-11-28T13:26:48Z</time>
      </trkpt>
      <trkpt lat="46.57153" lon="0.44576">
        <ele>129.081</ele>
        <time>2021-11-28T13:26:54Z</time>
      </trkpt>
      <trkpt lat="46.57158" lon="0.4457">
        <ele>129.03</ele>
        <time>2021-11-28T13:27:00Z</time>
      </trkpt>
      <trkpt lat="46.57165" lon="0.44568">
        <ele>128.868</ele>
        <time>2021-11-28T13:27:22Z</time>
      </trkpt>
      <trkpt lat="46.57169" lon="0.4456">
        <ele>128.769</ele>
        <time>2021-11-28T13:27:29Z</time>
      </trkpt>
      <trkpt lat="46.57171" lon="0.44551">
        <ele>128.663</ele>
        <time>2021-11-28T13:27:36Z</time>
      </trkpt>
      <trkpt lat="46.57175" lon="0.44542">
        <ele>128.543</ele>
        <time>2021-11-28T13:27:44Z</time>
      </trkpt>
      <trkpt lat="46.57179" lon="0.44534">
        <ele>128.44</ele>
        <time>2021-11-28T13:27:51Z</time>
      </trkpt>
      <trkpt lat="46.57184" lon="0.44528">
        <ele>128.341</ele>
        <time>2021-11-28T13:27:58Z</time>
      </trkpt>
      <trkpt lat="46.5719" lon="0.44521">
        <ele>128.246</ele>
        <time>2021-11-28T13:28:05Z</time>
      </trkpt>
      <trkpt lat="46.57195" lon="0.44514">
        <ele>128.165</ele>
        <time>2021-11-28T13:28:11Z</time>
      </trkpt>
      <trkpt lat="46.572" lon="0.44507">
        <ele>128.066</ele>
        <time>2021-11-28T13:28:18Z</time>
      </trkpt>
      <trkpt lat="46.57205" lon="0.445">
        <ele>127.964</ele>
        <time>2021-11-28T13:28:25Z</time>
      </trkpt>
      <trkpt lat="46.5721" lon="0.44493">
        <ele>127.878</ele>
        <time>2021-11-28T13:28:31Z</time>
      </trkpt>
      <trkpt lat="46.57214" lon="0.44485">
        <ele>127.77</ele>
        <time>2021-11-28T13:28:38Z</time>
      </trkpt>
      <trkpt lat="46.57218" lon="0.44477">
        <ele>127.671</ele>
        <time>2021-11-28T13:28:44Z</time>
      </trkpt>
      <trkpt lat="46.57222" lon="0.44469">
        <ele>127.569</ele>
        <time>2021-11-28T13:28:50Z</time>
      </trkpt>
      <trkpt lat="46.57228" lon="0.44462">
        <ele>127.449</ele>
        <time>2021-11-28T13:28:57Z</time>
      </trkpt>
      <trkpt lat="46.57234" lon="0.44455">
        <ele>127.329</ele>
        <time>2021-11-28T13:29:04Z</time>
      </trkpt>
      <trkpt lat="46.57239" lon="0.4445">
        <ele>127.214</ele>
        <time>2021-11-28T13:29:11Z</time>
      </trkpt>
      <trkpt lat="46.57246" lon="0.44446">
        <ele>127.061</ele>
        <time>2021-11-28T13:29:21Z</time>
      </trkpt>
      <trkpt lat="46.57251" lon="0.4444">
        <ele>126.945</ele>
        <time>2021-11-28T13:29:30Z</time>
      </trkpt>
      <trkpt lat="46.57254" lon="0.44431">
        <ele>126.841</ele>
        <time>2021-11-28T13:29:39Z</time>
      </trkpt>
      <trkpt lat="46.5726" lon="0.44424">
        <ele>126.778</ele>
        <time>2021-11-28T13:29:45Z</time>
      </trkpt>
      <trkpt lat="46.57264" lon="0.44417">
        <ele>126.718</ele>
        <time>2021-11-28T13:29:51Z</time>
      </trkpt>
      <trkpt lat="46.57271" lon="0.44416">
        <ele>126.329</ele>
        <time>2021-11-28T13:31:07Z</time>
      </trkpt>
      <trkpt lat="46.57282" lon="0.4441">
        <ele>126.286</ele>
        <time>2021-11-28T13:31:12Z</time>
      </trkpt>
      <trkpt lat="46.57289" lon="0.44404">
        <ele>126.243</ele>
        <time>2021-11-28T13:31:17Z</time>
      </trkpt>
      <trkpt lat="46.57296" lon="0.444">
        <ele>126.185</ele>
        <time>2021-11-28T13:31:23Z</time>
      </trkpt>
      <trkpt lat="46.57302" lon="0.44395">
        <ele>126.122</ele>
        <time>2021-11-28T13:31:29Z</time>
      </trkpt>
      <trkpt lat="46.57309" lon="0.44389">
        <ele>126.059</ele>
        <time>2021-11-28T13:31:35Z</time>
      </trkpt>
      <trkpt lat="46.57314" lon="0.44384">
        <ele>126.006</ele>
        <time>2021-11-28T13:31:40Z</time>
      </trkpt>
      <trkpt lat="46.57321" lon="0.44379">
        <ele>125.954</ele>
        <time>2021-11-28T13:31:45Z</time>
      </trkpt>
      <trkpt lat="46.57327" lon="0.4437">
        <ele>125.893</ele>
        <time>2021-11-28T13:31:51Z</time>
      </trkpt>
      <trkpt lat="46.57333" lon="0.44364">
        <ele>125.84</ele>
        <time>2021-11-28T13:31:56Z</time>
      </trkpt>
      <trkpt lat="46.57339" lon="0.44359">
        <ele>125.787</ele>
        <time>2021-11-28T13:32:01Z</time>
      </trkpt>
      <trkpt lat="46.57347" lon="0.44353">
        <ele>125.723</ele>
        <time>2021-11-28T13:32:07Z</time>
      </trkpt>
      <trkpt lat="46.57354" lon="0.44347">
        <ele>125.671</ele>
        <time>2021-11-28T13:32:12Z</time>
      </trkpt>
      <trkpt lat="46.5736" lon="0.4434">
        <ele>125.622</ele>
        <time>2021-11-28T13:32:17Z</time>
      </trkpt>
      <trkpt lat="46.57367" lon="0.44334">
        <ele>125.565</ele>
        <time>2021-11-28T13:32:23Z</time>
      </trkpt>
      <trkpt lat="46.57372" lon="0.44329">
        <ele>125.52</ele>
        <time>2021-11-28T13:32:28Z</time>
      </trkpt>
      <trkpt lat="46.57378" lon="0.44323">
        <ele>125.477</ele>
        <time>2021-11-28T13:32:33Z</time>
      </trkpt>
      <trkpt lat="46.57386" lon="0.44318">
        <ele>125.429</ele>
        <time>2021-11-28T13:32:39Z</time>
      </trkpt>
      <trkpt lat="46.57393" lon="0.44315">
        <ele>125.39</ele>
        <time>2021-11-28T13:32:44Z</time>
      </trkpt>
      <trkpt lat="46.574" lon="0.44311">
        <ele>125.355</ele>
        <time>2021-11-28T13:32:49Z</time>
      </trkpt>
      <trkpt lat="46.57409" lon="0.44307">
        <ele>125.316</ele>
        <time>2021-11-28T13:32:55Z</time>
      </trkpt>
      <trkpt lat="46.57416" lon="0.44304">
        <ele>125.287</ele>
        <time>2021-11-28T13:33:00Z</time>
      </trkpt>
      <trkpt lat="46.57423" lon="0.44301">
        <ele>125.259</ele>
        <time>2021-11-28T13:33:05Z</time>
      </trkpt>
      <trkpt lat="46.57431" lon="0.44298">
        <ele>125.226</ele>
        <time>2021-11-28T13:33:11Z</time>
      </trkpt>
      <trkpt lat="46.57439" lon="0.44294">
        <ele>125.198</ele>
        <time>2021-11-28T13:33:16Z</time>
      </trkpt>
      <trkpt lat="46.57446" lon="0.4429">
        <ele>125.142</ele>
        <time>2021-11-28T13:33:26Z</time>
      </trkpt>
      <trkpt lat="46.57454" lon="0.44285">
        <ele>125.108</ele>
        <time>2021-11-28T13:33:31Z</time>
      </trkpt>
      <trkpt lat="46.57461" lon="0.44281">
        <ele>125.073</ele>
        <time>2021-11-28T13:33:36Z</time>
      </trkpt>
      <trkpt lat="46.57467" lon="0.44277">
        <ele>125.037</ele>
        <time>2021-11-28T13:33:41Z</time>
      </trkpt>
      <trkpt lat="46.57475" lon="0.44272">
        <ele>124.996</ele>
        <time>2021-11-28T13:33:47Z</time>
      </trkpt>
      <trkpt lat="46.5748" lon="0.44267">
        <ele>124.964</ele>
        <time>2021-11-28T13:33:52Z</time>
      </trkpt>
      <trkpt lat="46.57485" lon="0.44261">
        <ele>124.934</ele>
        <time>2021-11-28T13:33:57Z</time>
      </trkpt>
      <trkpt lat="46.57491" lon="0.44253">
        <ele>124.903</ele>
        <time>2021-11-28T13:34:03Z</time>
      </trkpt>
      <trkpt lat="46.57496" lon="0.44247">
        <ele>124.874</ele>
        <time>2021-11-28T13:34:09Z</time>
      </trkpt>
      <trkpt lat="46.57502" lon="0.4424">
        <ele>124.845</ele>
        <time>2021-11-28T13:34:15Z</time>
      </trkpt>
      <trkpt lat="46.57507" lon="0.44234">
        <ele>124.811</ele>
        <time>2021-11-28T13:34:22Z</time>
      </trkpt>
      <trkpt lat="46.57512" lon="0.44227">
        <ele>124.781</ele>
        <time>2021-11-28T13:34:30Z</time>
      </trkpt>
      <trkpt lat="46.57517" lon="0.44221">
        <ele>124.752</ele>
        <time>2021-11-28T13:34:38Z</time>
      </trkpt>
      <trkpt lat="46.57523" lon="0.44216">
        <ele>124.725</ele>
        <time>2021-11-28T13:34:46Z</time>
      </trkpt>
      <trkpt lat="46.57529" lon="0.44211">
        <ele>124.701</ele>
        <time>2021-11-28T13:34:54Z</time>
      </trkpt>
      <trkpt lat="46.57535" lon="0.44206">
        <ele>124.686</ele>
        <time>2021-11-28T13:35:01Z</time>
      </trkpt>
      <trkpt lat="46.57541" lon="0.44201">
        <ele>124.668</ele>
        <time>2021-11-28T13:35:09Z</time>
      </trkpt>
      <trkpt lat="46.57547" lon="0.44195">
        <ele>124.647</ele>
        <time>2021-11-28T13:35:17Z</time>
      </trkpt>
      <trkpt lat="46.57552" lon="0.44189">
        <ele>124.632</ele>
        <time>2021-11-28T13:35:24Z</time>
      </trkpt>
      <trkpt lat="46.57559" lon="0.44185">
        <ele>124.622</ele>
        <time>2021-11-28T13:35:31Z</time>
      </trkpt>
      <trkpt lat="46.57565" lon="0.44179">
        <ele>124.612</ele>
        <time>2021-11-28T13:35:42Z</time>
      </trkpt>
      <trkpt lat="46.5757" lon="0.44173">
        <ele>124.596</ele>
        <time>2021-11-28T13:35:56Z</time>
      </trkpt>
      <trkpt lat="46.57576" lon="0.4417">
        <ele>124.583</ele>
        <time>2021-11-28T13:36:09Z</time>
      </trkpt>
      <trkpt lat="46.57583" lon="0.4417">
        <ele>124.579</ele>
        <time>2021-11-28T13:36:19Z</time>
      </trkpt>
      <trkpt lat="46.5759" lon="0.44167">
        <ele>124.575</ele>
        <time>2021-11-28T13:36:30Z</time>
      </trkpt>
      <trkpt lat="46.57596" lon="0.44164">
        <ele>124.574</ele>
        <time>2021-11-28T13:36:41Z</time>
      </trkpt>
      <trkpt lat="46.57602" lon="0.44162">
        <ele>124.573</ele>
        <time>2021-11-28T13:36:50Z</time>
      </trkpt>
      <trkpt lat="46.57609" lon="0.44159">
        <ele>124.57</ele>
        <time>2021-11-28T13:36:59Z</time>
      </trkpt>
      <trkpt lat="46.57616" lon="0.44159">
        <ele>124.567</ele>
        <time>2021-11-28T13:37:07Z</time>
      </trkpt>
      <trkpt lat="46.57622" lon="0.44159">
        <ele>124.553</ele>
        <time>2021-11-28T13:37:15Z</time>
      </trkpt>
      <trkpt lat="46.57629" lon="0.44162">
        <ele>124.532</ele>
        <time>2021-11-28T13:37:23Z</time>
      </trkpt>
      <trkpt lat="46.57636" lon="0.44162">
        <ele>124.506</ele>
        <time>2021-11-28T13:37:31Z</time>
      </trkpt>
      <trkpt lat="46.57643" lon="0.44164">
        <ele>124.478</ele>
        <time>2021-11-28T13:37:38Z</time>
      </trkpt>
      <trkpt lat="46.5765" lon="0.44165">
        <ele>124.441</ele>
        <time>2021-11-28T13:37:45Z</time>
      </trkpt>
      <trkpt lat="46.57657" lon="0.44166">
        <ele>124.401</ele>
        <time>2021-11-28T13:37:51Z</time>
      </trkpt>
      <trkpt lat="46.57664" lon="0.44168">
        <ele>124.336</ele>
        <time>2021-11-28T13:37:59Z</time>
      </trkpt>
      <trkpt lat="46.57671" lon="0.4417">
        <ele>124.261</ele>
        <time>2021-11-28T13:38:08Z</time>
      </trkpt>
      <trkpt lat="46.57677" lon="0.44173">
        <ele>124.21</ele>
        <time>2021-11-28T13:38:15Z</time>
      </trkpt>
      <trkpt lat="46.57684" lon="0.44177">
        <ele>124.167</ele>
        <time>2021-11-28T13:38:22Z</time>
      </trkpt>
      <trkpt lat="46.57691" lon="0.4418">
        <ele>124.124</ele>
        <time>2021-11-28T13:38:30Z</time>
      </trkpt>
      <trkpt lat="46.57697" lon="0.44183">
        <ele>124.084</ele>
        <time>2021-11-28T13:38:38Z</time>
      </trkpt>
      <trkpt lat="46.57704" lon="0.44185">
        <ele>124.047</ele>
        <time>2021-11-28T13:38:45Z</time>
      </trkpt>
      <trkpt lat="46.57711" lon="0.44187">
        <ele>124.01</ele>
        <time>2021-11-28T13:38:52Z</time>
      </trkpt>
      <trkpt lat="46.57718" lon="0.44189">
        <ele>123.975</ele>
        <time>2021-11-28T13:38:59Z</time>
      </trkpt>
      <trkpt lat="46.57725" lon="0.44191">
        <ele>123.929</ele>
        <time>2021-11-28T13:39:09Z</time>
      </trkpt>
      <trkpt lat="46.57732" lon="0.44191">
        <ele>123.891</ele>
        <time>2021-11-28T13:39:18Z</time>
      </trkpt>
      <trkpt lat="46.57739" lon="0.4419">
        <ele>123.866</ele>
        <time>2021-11-28T13:39:25Z</time>
      </trkpt>
      <trkpt lat="46.57746" lon="0.44191">
        <ele>123.842</ele>
        <time>2021-11-28T13:39:33Z</time>
      </trkpt>
      <trkpt lat="46.57753" lon="0.44194">
        <ele>123.822</ele>
        <time>2021-11-28T13:39:40Z</time>
      </trkpt>
      <trkpt lat="46.5776" lon="0.44195">
        <ele>123.806</ele>
        <time>2021-11-28T13:39:47Z</time>
      </trkpt>
      <trkpt lat="46.57767" lon="0.44197">
        <ele>123.791</ele>
        <time>2021-11-28T13:39:54Z</time>
      </trkpt>
      <trkpt lat="46.57774" lon="0.442">
        <ele>123.774</ele>
        <time>2021-11-28T13:40:01Z</time>
      </trkpt>
      <trkpt lat="46.5778" lon="0.44202">
        <ele>123.75</ele>
        <time>2021-11-28T13:40:08Z</time>
      </trkpt>
      <trkpt lat="46.57787" lon="0.44204">
        <ele>123.722</ele>
        <time>2021-11-28T13:40:15Z</time>
      </trkpt>
      <trkpt lat="46.57794" lon="0.44204">
        <ele>123.691</ele>
        <time>2021-11-28T13:40:22Z</time>
      </trkpt>
      <trkpt lat="46.57801" lon="0.44205">
        <ele>123.662</ele>
        <time>2021-11-28T13:40:28Z</time>
      </trkpt>
      <trkpt lat="46.57808" lon="0.44205">
        <ele>123.606</ele>
        <time>2021-11-28T13:40:38Z</time>
      </trkpt>
      <trkpt lat="46.57815" lon="0.44206">
        <ele>123.565</ele>
        <time>2021-11-28T13:40:45Z</time>
      </trkpt>
      <trkpt lat="46.57821" lon="0.44208">
        <ele>123.532</ele>
        <time>2021-11-28T13:40:50Z</time>
      </trkpt>
      <trkpt lat="46.57829" lon="0.44209">
        <ele>123.481</ele>
        <time>2021-11-28T13:40:57Z</time>
      </trkpt>
      <trkpt lat="46.57836" lon="0.44209">
        <ele>123.415</ele>
        <time>2021-11-28T13:41:06Z</time>
      </trkpt>
      <trkpt lat="46.57842" lon="0.44213">
        <ele>123.369</ele>
        <time>2021-11-28T13:41:12Z</time>
      </trkpt>
      <trkpt lat="46.57844" lon="0.44224">
        <ele>123.305</ele>
        <time>2021-11-28T13:41:20Z</time>
      </trkpt>
      <trkpt lat="46.57842" lon="0.44233">
        <ele>123.222</ele>
        <time>2021-11-28T13:41:29Z</time>
      </trkpt>
      <trkpt lat="46.5784" lon="0.44243">
        <ele>123.142</ele>
        <time>2021-11-28T13:41:37Z</time>
      </trkpt>
      <trkpt lat="46.57837" lon="0.44253">
        <ele>123.06</ele>
        <time>2021-11-28T13:41:45Z</time>
      </trkpt>
      <trkpt lat="46.57835" lon="0.44262">
        <ele>122.981</ele>
        <time>2021-11-28T13:41:53Z</time>
      </trkpt>
      <trkpt lat="46.57832" lon="0.44272">
        <ele>122.914</ele>
        <time>2021-11-28T13:42:00Z</time>
      </trkpt>
      <trkpt lat="46.57829" lon="0.44281">
        <ele>122.847</ele>
        <time>2021-11-28T13:42:07Z</time>
      </trkpt>
      <trkpt lat="46.57826" lon="0.44289">
        <ele>122.766</ele>
        <time>2021-11-28T13:42:15Z</time>
      </trkpt>
      <trkpt lat="46.57823" lon="0.44298">
        <ele>122.703</ele>
        <time>2021-11-28T13:42:21Z</time>
      </trkpt>
      <trkpt lat="46.57821" lon="0.44308">
        <ele>122.63</ele>
        <time>2021-11-28T13:42:28Z</time>
      </trkpt>
      <trkpt lat="46.57818" lon="0.44317">
        <ele>122.56</ele>
        <time>2021-11-28T13:42:35Z</time>
      </trkpt>
      <trkpt lat="46.57815" lon="0.44325">
        <ele>122.46</ele>
        <time>2021-11-28T13:42:58Z</time>
      </trkpt>
      <trkpt lat="46.5781" lon="0.44331">
        <ele>122.406</ele>
        <time>2021-11-28T13:44:09Z</time>
      </trkpt>
      <trkpt lat="46.57808" lon="0.44342">
        <ele>122.427</ele>
        <time>2021-11-28T13:44:15Z</time>
      </trkpt>
      <trkpt lat="46.57806" lon="0.44351">
        <ele>122.43</ele>
        <time>2021-11-28T13:44:22Z</time>
      </trkpt>
      <trkpt lat="46.57804" lon="0.44361">
        <ele>122.41</ele>
        <time>2021-11-28T13:44:29Z</time>
      </trkpt>
      <trkpt lat="46.57802" lon="0.44371">
        <ele>122.379</ele>
        <time>2021-11-28T13:44:35Z</time>
      </trkpt>
      <trkpt lat="46.57802" lon="0.44381">
        <ele>122.343</ele>
        <time>2021-11-28T13:44:41Z</time>
      </trkpt>
      <trkpt lat="46.57802" lon="0.44391">
        <ele>122.31</ele>
        <time>2021-11-28T13:44:46Z</time>
      </trkpt>
      <trkpt lat="46.57802" lon="0.44401">
        <ele>122.274</ele>
        <time>2021-11-28T13:44:52Z</time>
      </trkpt>
      <trkpt lat="46.578" lon="0.44411">
        <ele>122.23</ele>
        <time>2021-11-28T13:44:59Z</time>
      </trkpt>
      <trkpt lat="46.57797" lon="0.4442">
        <ele>122.182</ele>
        <time>2021-11-28T13:45:06Z</time>
      </trkpt>
      <trkpt lat="46.57794" lon="0.44431">
        <ele>122.138</ele>
        <time>2021-11-28T13:45:12Z</time>
      </trkpt>
      <trkpt lat="46.57792" lon="0.44441">
        <ele>122.091</ele>
        <time>2021-11-28T13:45:18Z</time>
      </trkpt>
      <trkpt lat="46.57788" lon="0.4445">
        <ele>122.043</ele>
        <time>2021-11-28T13:45:24Z</time>
      </trkpt>
      <trkpt lat="46.57783" lon="0.44458">
        <ele>122.002</ele>
        <time>2021-11-28T13:45:29Z</time>
      </trkpt>
      <trkpt lat="46.5778" lon="0.44466">
        <ele>121.962</ele>
        <time>2021-11-28T13:45:34Z</time>
      </trkpt>
      <trkpt lat="46.57775" lon="0.44473">
        <ele>121.915</ele>
        <time>2021-11-28T13:45:40Z</time>
      </trkpt>
      <trkpt lat="46.5777" lon="0.44481">
        <ele>121.868</ele>
        <time>2021-11-28T13:45:46Z</time>
      </trkpt>
      <trkpt lat="46.57765" lon="0.4449">
        <ele>121.82</ele>
        <time>2021-11-28T13:45:52Z</time>
      </trkpt>
      <trkpt lat="46.57761" lon="0.44498">
        <ele>121.764</ele>
        <time>2021-11-28T13:45:59Z</time>
      </trkpt>
      <trkpt lat="46.57757" lon="0.44506">
        <ele>121.716</ele>
        <time>2021-11-28T13:46:05Z</time>
      </trkpt>
      <trkpt lat="46.57752" lon="0.44513">
        <ele>121.677</ele>
        <time>2021-11-28T13:46:10Z</time>
      </trkpt>
      <trkpt lat="46.57748" lon="0.44521">
        <ele>121.63</ele>
        <time>2021-11-28T13:46:16Z</time>
      </trkpt>
      <trkpt lat="46.57744" lon="0.44528">
        <ele>121.582</ele>
        <time>2021-11-28T13:46:22Z</time>
      </trkpt>
      <trkpt lat="46.57739" lon="0.44536">
        <ele>121.525</ele>
        <time>2021-11-28T13:46:29Z</time>
      </trkpt>
      <trkpt lat="46.57736" lon="0.44545">
        <ele>121.471</ele>
        <time>2021-11-28T13:46:36Z</time>
      </trkpt>
      <trkpt lat="46.57733" lon="0.44554">
        <ele>121.423</ele>
        <time>2021-11-28T13:46:42Z</time>
      </trkpt>
      <trkpt lat="46.57731" lon="0.44564">
        <ele>121.374</ele>
        <time>2021-11-28T13:46:48Z</time>
      </trkpt>
      <trkpt lat="46.57729" lon="0.44574">
        <ele>121.315</ele>
        <time>2021-11-28T13:46:55Z</time>
      </trkpt>
      <trkpt lat="46.57727" lon="0.44584">
        <ele>121.264</ele>
        <time>2021-11-28T13:47:01Z</time>
      </trkpt>
      <trkpt lat="46.57725" lon="0.44593">
        <ele>121.192</ele>
        <time>2021-11-28T13:47:09Z</time>
      </trkpt>
      <trkpt lat="46.57724" lon="0.44603">
        <ele>121.132</ele>
        <time>2021-11-28T13:47:16Z</time>
      </trkpt>
      <trkpt lat="46.57721" lon="0.44612">
        <ele>121.074</ele>
        <time>2021-11-28T13:47:23Z</time>
      </trkpt>
      <trkpt lat="46.57718" lon="0.44621">
        <ele>121.01</ele>
        <time>2021-11-28T13:47:31Z</time>
      </trkpt>
      <trkpt lat="46.57715" lon="0.4463">
        <ele>120.96</ele>
        <time>2021-11-28T13:47:38Z</time>
      </trkpt>
      <trkpt lat="46.57711" lon="0.44638">
        <ele>120.913</ele>
        <time>2021-11-28T13:47:45Z</time>
      </trkpt>
      <trkpt lat="46.57707" lon="0.44647">
        <ele>120.877</ele>
        <time>2021-11-28T13:47:51Z</time>
      </trkpt>
      <trkpt lat="46.57702" lon="0.44655">
        <ele>120.838</ele>
        <time>2021-11-28T13:47:58Z</time>
      </trkpt>
      <trkpt lat="46.57699" lon="0.44664">
        <ele>120.803</ele>
        <time>2021-11-28T13:48:05Z</time>
      </trkpt>
      <trkpt lat="46.57695" lon="0.44672">
        <ele>120.77</ele>
        <time>2021-11-28T13:48:12Z</time>
      </trkpt>
      <trkpt lat="46.57691" lon="0.4468">
        <ele>120.737</ele>
        <time>2021-11-28T13:48:19Z</time>
      </trkpt>
      <trkpt lat="46.57687" lon="0.44688">
        <ele>120.692</ele>
        <time>2021-11-28T13:48:28Z</time>
      </trkpt>
      <trkpt lat="46.57682" lon="0.44693">
        <ele>120.543</ele>
        <time>2021-11-28T13:49:04Z</time>
      </trkpt>
      <trkpt lat="46.57681" lon="0.44703">
        <ele>119.953</ele>
        <time>2021-11-28T13:52:03Z</time>
      </trkpt>
      <trkpt lat="46.57676" lon="0.44711">
        <ele>119.894</ele>
        <time>2021-11-28T13:52:11Z</time>
      </trkpt>
      <trkpt lat="46.57672" lon="0.44718">
        <ele>119.841</ele>
        <time>2021-11-28T13:52:18Z</time>
      </trkpt>
      <trkpt lat="46.57668" lon="0.44725">
        <ele>119.776</ele>
        <time>2021-11-28T13:52:26Z</time>
      </trkpt>
      <trkpt lat="46.57663" lon="0.44732">
        <ele>119.719</ele>
        <time>2021-11-28T13:52:33Z</time>
      </trkpt>
      <trkpt lat="46.57659" lon="0.4474">
        <ele>119.669</ele>
        <time>2021-11-28T13:52:39Z</time>
      </trkpt>
      <trkpt lat="46.57655" lon="0.44748">
        <ele>119.613</ele>
        <time>2021-11-28T13:52:46Z</time>
      </trkpt>
      <trkpt lat="46.5765" lon="0.44754">
        <ele>119.56</ele>
        <time>2021-11-28T13:52:53Z</time>
      </trkpt>
      <trkpt lat="46.57645" lon="0.44761">
        <ele>119.51</ele>
        <time>2021-11-28T13:53:00Z</time>
      </trkpt>
      <trkpt lat="46.57642" lon="0.4477">
        <ele>119.459</ele>
        <time>2021-11-28T13:53:07Z</time>
      </trkpt>
      <trkpt lat="46.57643" lon="0.44779">
        <ele>119.395</ele>
        <time>2021-11-28T13:53:15Z</time>
      </trkpt>
      <trkpt lat="46.57648" lon="0.44786">
        <ele>119.314</ele>
        <time>2021-11-28T13:53:24Z</time>
      </trkpt>
      <trkpt lat="46.57651" lon="0.44795">
        <ele>119.23</ele>
        <time>2021-11-28T13:53:33Z</time>
      </trkpt>
      <trkpt lat="46.57656" lon="0.44802">
        <ele>119.158</ele>
        <time>2021-11-28T13:53:41Z</time>
      </trkpt>
      <trkpt lat="46.57659" lon="0.44812">
        <ele>119.074</ele>
        <time>2021-11-28T13:53:51Z</time>
      </trkpt>
      <trkpt lat="46.57662" lon="0.4482">
        <ele>119.014</ele>
        <time>2021-11-28T13:53:58Z</time>
      </trkpt>
      <trkpt lat="46.57665" lon="0.44829">
        <ele>118.952</ele>
        <time>2021-11-28T13:54:05Z</time>
      </trkpt>
      <trkpt lat="46.57669" lon="0.44837">
        <ele>118.881</ele>
        <time>2021-11-28T13:54:12Z</time>
      </trkpt>
      <trkpt lat="46.57672" lon="0.44846">
        <ele>118.775</ele>
        <time>2021-11-28T13:54:21Z</time>
      </trkpt>
      <trkpt lat="46.57677" lon="0.44853">
        <ele>118.702</ele>
        <time>2021-11-28T13:54:27Z</time>
      </trkpt>
      <trkpt lat="46.57682" lon="0.44861">
        <ele>118.624</ele>
        <time>2021-11-28T13:54:33Z</time>
      </trkpt>
      <trkpt lat="46.57687" lon="0.44866">
        <ele>118.537</ele>
        <time>2021-11-28T13:54:39Z</time>
      </trkpt>
      <trkpt lat="46.57693" lon="0.44871">
        <ele>118.445</ele>
        <time>2021-11-28T13:54:45Z</time>
      </trkpt>
      <trkpt lat="46.577" lon="0.44877">
        <ele>118.349</ele>
        <time>2021-11-28T13:54:51Z</time>
      </trkpt>
      <trkpt lat="46.57705" lon="0.44884">
        <ele>118.238</ele>
        <time>2021-11-28T13:54:58Z</time>
      </trkpt>
      <trkpt lat="46.5771" lon="0.44891">
        <ele>118.133</ele>
        <time>2021-11-28T13:55:05Z</time>
      </trkpt>
      <trkpt lat="46.57713" lon="0.449">
        <ele>118.033</ele>
        <time>2021-11-28T13:55:12Z</time>
      </trkpt>
      <trkpt lat="46.57717" lon="0.44907">
        <ele>117.946</ele>
        <time>2021-11-28T13:55:18Z</time>
      </trkpt>
      <trkpt lat="46.57722" lon="0.44914">
        <ele>117.841</ele>
        <time>2021-11-28T13:55:25Z</time>
      </trkpt>
      <trkpt lat="46.57728" lon="0.44919">
        <ele>117.741</ele>
        <time>2021-11-28T13:55:32Z</time>
      </trkpt>
      <trkpt lat="46.57732" lon="0.44926">
        <ele>117.64</ele>
        <time>2021-11-28T13:55:40Z</time>
      </trkpt>
      <trkpt lat="46.57736" lon="0.44934">
        <ele>117.559</ele>
        <time>2021-11-28T13:55:47Z</time>
      </trkpt>
      <trkpt lat="46.57741" lon="0.44942">
        <ele>117.467</ele>
        <time>2021-11-28T13:55:55Z</time>
      </trkpt>
      <trkpt lat="46.57747" lon="0.44949">
        <ele>117.397</ele>
        <time>2021-11-28T13:56:01Z</time>
      </trkpt>
      <trkpt lat="46.57751" lon="0.44956">
        <ele>117.324</ele>
        <time>2021-11-28T13:56:07Z</time>
      </trkpt>
      <trkpt lat="46.57755" lon="0.44964">
        <ele>117.22</ele>
        <time>2021-11-28T13:56:15Z</time>
      </trkpt>
      <trkpt lat="46.5776" lon="0.44973">
        <ele>117.113</ele>
        <time>2021-11-28T13:56:23Z</time>
      </trkpt>
      <trkpt lat="46.57766" lon="0.4498">
        <ele>117.037</ele>
        <time>2021-11-28T13:56:29Z</time>
      </trkpt>
      <trkpt lat="46.57772" lon="0.44988">
        <ele>116.944</ele>
        <time>2021-11-28T13:56:37Z</time>
      </trkpt>
      <trkpt lat="46.57775" lon="0.44996">
        <ele>116.873</ele>
        <time>2021-11-28T13:56:44Z</time>
      </trkpt>
      <trkpt lat="46.57779" lon="0.45004">
        <ele>116.794</ele>
        <time>2021-11-28T13:56:52Z</time>
      </trkpt>
      <trkpt lat="46.57782" lon="0.45015">
        <ele>116.704</ele>
        <time>2021-11-28T13:57:01Z</time>
      </trkpt>
      <trkpt lat="46.57786" lon="0.45022">
        <ele>116.62</ele>
        <time>2021-11-28T13:57:09Z</time>
      </trkpt>
      <trkpt lat="46.57789" lon="0.45032">
        <ele>116.551</ele>
        <time>2021-11-28T13:57:15Z</time>
      </trkpt>
      <trkpt lat="46.57793" lon="0.45039">
        <ele>116.448</ele>
        <time>2021-11-28T13:57:23Z</time>
      </trkpt>
      <trkpt lat="46.57799" lon="0.45044">
        <ele>116.361</ele>
        <time>2021-11-28T13:57:29Z</time>
      </trkpt>
      <trkpt lat="46.57805" lon="0.45049">
        <ele>116.274</ele>
        <time>2021-11-28T13:57:35Z</time>
      </trkpt>
      <trkpt lat="46.57812" lon="0.45051">
        <ele>116.192</ele>
        <time>2021-11-28T13:57:41Z</time>
      </trkpt>
      <trkpt lat="46.57819" lon="0.4505">
        <ele>116.109</ele>
        <time>2021-11-28T13:57:48Z</time>
      </trkpt>
      <trkpt lat="46.57825" lon="0.45048">
        <ele>116.063</ele>
        <time>2021-11-28T13:57:53Z</time>
      </trkpt>
      <trkpt lat="46.57832" lon="0.45044">
        <ele>116.02</ele>
        <time>2021-11-28T13:57:59Z</time>
      </trkpt>
      <trkpt lat="46.57837" lon="0.45038">
        <ele>115.982</ele>
        <time>2021-11-28T13:58:06Z</time>
      </trkpt>
      <trkpt lat="46.57841" lon="0.45029">
        <ele>115.95</ele>
        <time>2021-11-28T13:58:14Z</time>
      </trkpt>
      <trkpt lat="46.57846" lon="0.45021">
        <ele>115.931</ele>
        <time>2021-11-28T13:58:21Z</time>
      </trkpt>
      <trkpt lat="46.5785" lon="0.45013">
        <ele>115.922</ele>
        <time>2021-11-28T13:58:28Z</time>
      </trkpt>
      <trkpt lat="46.57855" lon="0.45005">
        <ele>115.922</ele>
        <time>2021-11-28T13:58:37Z</time>
      </trkpt>
      <trkpt lat="46.5786" lon="0.44997">
        <ele>115.934</ele>
        <time>2021-11-28T13:58:45Z</time>
      </trkpt>
      <trkpt lat="46.57864" lon="0.4499">
        <ele>115.954</ele>
        <time>2021-11-28T13:58:53Z</time>
      </trkpt>
      <trkpt lat="46.57869" lon="0.44983">
        <ele>115.981</ele>
        <time>2021-11-28T13:59:00Z</time>
      </trkpt>
      <trkpt lat="46.57874" lon="0.44975">
        <ele>116.019</ele>
        <time>2021-11-28T13:59:08Z</time>
      </trkpt>
      <trkpt lat="46.57879" lon="0.4497">
        <ele>116.069</ele>
        <time>2021-11-28T13:59:17Z</time>
      </trkpt>
      <trkpt lat="46.57886" lon="0.44966">
        <ele>116.114</ele>
        <time>2021-11-28T13:59:24Z</time>
      </trkpt>
      <trkpt lat="46.57892" lon="0.4497">
        <ele>116.207</ele>
        <time>2021-11-28T13:59:39Z</time>
      </trkpt>
      <trkpt lat="46.57898" lon="0.44975">
        <ele>116.261</ele>
        <time>2021-11-28T13:59:50Z</time>
      </trkpt>
      <trkpt lat="46.57904" lon="0.44979">
        <ele>116.281</ele>
        <time>2021-11-28T13:59:56Z</time>
      </trkpt>
      <trkpt lat="46.5791" lon="0.44984">
        <ele>116.298</ele>
        <time>2021-11-28T14:00:03Z</time>
      </trkpt>
      <trkpt lat="46.57916" lon="0.44989">
        <ele>116.306</ele>
        <time>2021-11-28T14:00:12Z</time>
      </trkpt>
      <trkpt lat="46.57922" lon="0.44993">
        <ele>116.306</ele>
        <time>2021-11-28T14:00:19Z</time>
      </trkpt>
      <trkpt lat="46.57929" lon="0.44997">
        <ele>116.306</ele>
        <time>2021-11-28T14:00:26Z</time>
      </trkpt>
      <trkpt lat="46.57934" lon="0.45004">
        <ele>116.305</ele>
        <time>2021-11-28T14:00:32Z</time>
      </trkpt>
      <trkpt lat="46.57939" lon="0.45009">
        <ele>116.303</ele>
        <time>2021-11-28T14:00:39Z</time>
      </trkpt>
      <trkpt lat="46.57945" lon="0.45016">
        <ele>116.295</ele>
        <time>2021-11-28T14:00:47Z</time>
      </trkpt>
      <trkpt lat="46.57951" lon="0.45021">
        <ele>116.282</ele>
        <time>2021-11-28T14:00:55Z</time>
      </trkpt>
      <trkpt lat="46.57957" lon="0.45028">
        <ele>116.273</ele>
        <time>2021-11-28T14:01:01Z</time>
      </trkpt>
      <trkpt lat="46.57962" lon="0.45035">
        <ele>116.26</ele>
        <time>2021-11-28T14:01:08Z</time>
      </trkpt>
      <trkpt lat="46.57967" lon="0.45041">
        <ele>116.238</ele>
        <time>2021-11-28T14:01:16Z</time>
      </trkpt>
      <trkpt lat="46.57973" lon="0.45047">
        <ele>116.215</ele>
        <time>2021-11-28T14:01:25Z</time>
      </trkpt>
      <trkpt lat="46.57977" lon="0.45055">
        <ele>116.202</ele>
        <time>2021-11-28T14:01:33Z</time>
      </trkpt>
      <trkpt lat="46.57981" lon="0.45064">
        <ele>116.178</ele>
        <time>2021-11-28T14:01:43Z</time>
      </trkpt>
      <trkpt lat="46.57988" lon="0.45067">
        <ele>116.155</ele>
        <time>2021-11-28T14:01:50Z</time>
      </trkpt>
      <trkpt lat="46.57994" lon="0.45071">
        <ele>116.131</ele>
        <time>2021-11-28T14:01:57Z</time>
      </trkpt>
      <trkpt lat="46.58" lon="0.45075">
        <ele>116.106</ele>
        <time>2021-11-28T14:02:04Z</time>
      </trkpt>
      <trkpt lat="46.58008" lon="0.45078">
        <ele>116.082</ele>
        <time>2021-11-28T14:02:10Z</time>
      </trkpt>
      <trkpt lat="46.58014" lon="0.4508">
        <ele>116.054</ele>
        <time>2021-11-28T14:02:17Z</time>
      </trkpt>
      <trkpt lat="46.58021" lon="0.45082">
        <ele>116.027</ele>
        <time>2021-11-28T14:02:25Z</time>
      </trkpt>
      <trkpt lat="46.58028" lon="0.45082">
        <ele>116.001</ele>
        <time>2021-11-28T14:02:34Z</time>
      </trkpt>
      <trkpt lat="46.58035" lon="0.45082">
        <ele>115.988</ele>
        <time>2021-11-28T14:02:42Z</time>
      </trkpt>
      <trkpt lat="46.58042" lon="0.45083">
        <ele>115.977</ele>
        <time>2021-11-28T14:02:50Z</time>
      </trkpt>
      <trkpt lat="46.58048" lon="0.45087">
        <ele>115.926</ele>
        <time>2021-11-28T14:03:20Z</time>
      </trkpt>
      <trkpt lat="46.58049" lon="0.45098">
        <ele>115.873</ele>
        <time>2021-11-28T14:03:30Z</time>
      </trkpt>
      <trkpt lat="46.58049" lon="0.45108">
        <ele>115.823</ele>
        <time>2021-11-28T14:03:39Z</time>
      </trkpt>
      <trkpt lat="46.58048" lon="0.45117">
        <ele>115.796</ele>
        <time>2021-11-28T14:03:45Z</time>
      </trkpt>
      <trkpt lat="46.58046" lon="0.45127">
        <ele>115.769</ele>
        <time>2021-11-28T14:03:54Z</time>
      </trkpt>
      <trkpt lat="46.58044" lon="0.45135">
        <ele>115.755</ele>
        <time>2021-11-28T14:04:01Z</time>
      </trkpt>
      <trkpt lat="46.58039" lon="0.45144">
        <ele>115.747</ele>
        <time>2021-11-28T14:04:10Z</time>
      </trkpt>
      <trkpt lat="46.58036" lon="0.45153">
        <ele>115.745</ele>
        <time>2021-11-28T14:04:18Z</time>
      </trkpt>
      <trkpt lat="46.58034" lon="0.45162">
        <ele>115.756</ele>
        <time>2021-11-28T14:04:25Z</time>
      </trkpt>
      <trkpt lat="46.58029" lon="0.45171">
        <ele>115.768</ele>
        <time>2021-11-28T14:04:31Z</time>
      </trkpt>
      <trkpt lat="46.58026" lon="0.4518">
        <ele>115.776</ele>
        <time>2021-11-28T14:04:37Z</time>
      </trkpt>
      <trkpt lat="46.58021" lon="0.45186">
        <ele>115.79</ele>
        <time>2021-11-28T14:04:47Z</time>
      </trkpt>
      <trkpt lat="46.58016" lon="0.45193">
        <ele>115.798</ele>
        <time>2021-11-28T14:04:55Z</time>
      </trkpt>
      <trkpt lat="46.58011" lon="0.452">
        <ele>115.805</ele>
        <time>2021-11-28T14:05:02Z</time>
      </trkpt>
      <trkpt lat="46.58005" lon="0.45206">
        <ele>115.812</ele>
        <time>2021-11-28T14:05:08Z</time>
      </trkpt>
      <trkpt lat="46.57999" lon="0.45212">
        <ele>115.819</ele>
        <time>2021-11-28T14:05:16Z</time>
      </trkpt>
      <trkpt lat="46.57994" lon="0.45219">
        <ele>115.827</ele>
        <time>2021-11-28T14:05:23Z</time>
      </trkpt>
      <trkpt lat="46.57989" lon="0.45227">
        <ele>115.833</ele>
        <time>2021-11-28T14:05:30Z</time>
      </trkpt>
      <trkpt lat="46.57983" lon="0.45233">
        <ele>115.838</ele>
        <time>2021-11-28T14:05:38Z</time>
      </trkpt>
      <trkpt lat="46.57977" lon="0.45237">
        <ele>115.84</ele>
        <time>2021-11-28T14:05:44Z</time>
      </trkpt>
      <trkpt lat="46.57971" lon="0.45243">
        <ele>115.841</ele>
        <time>2021-11-28T14:05:51Z</time>
      </trkpt>
      <trkpt lat="46.57966" lon="0.45249">
        <ele>115.842</ele>
        <time>2021-11-28T14:05:57Z</time>
      </trkpt>
      <trkpt lat="46.5796" lon="0.45255">
        <ele>115.845</ele>
        <time>2021-11-28T14:06:03Z</time>
      </trkpt>
      <trkpt lat="46.57954" lon="0.45261">
        <ele>115.845</ele>
        <time>2021-11-28T14:06:12Z</time>
      </trkpt>
      <trkpt lat="46.57949" lon="0.45267">
        <ele>115.842</ele>
        <time>2021-11-28T14:06:20Z</time>
      </trkpt>
      <trkpt lat="46.57943" lon="0.45275">
        <ele>115.839</ele>
        <time>2021-11-28T14:06:26Z</time>
      </trkpt>
      <trkpt lat="46.57937" lon="0.4528">
        <ele>115.835</ele>
        <time>2021-11-28T14:06:34Z</time>
      </trkpt>
      <trkpt lat="46.57932" lon="0.45287">
        <ele>115.83</ele>
        <time>2021-11-28T14:06:41Z</time>
      </trkpt>
      <trkpt lat="46.57926" lon="0.45292">
        <ele>115.818</ele>
        <time>2021-11-28T14:06:49Z</time>
      </trkpt>
      <trkpt lat="46.5792" lon="0.45299">
        <ele>115.809</ele>
        <time>2021-11-28T14:06:55Z</time>
      </trkpt>
      <trkpt lat="46.57917" lon="0.45309">
        <ele>115.788</ele>
        <time>2021-11-28T14:07:07Z</time>
      </trkpt>
      <trkpt lat="46.57915" lon="0.45319">
        <ele>115.771</ele>
        <time>2021-11-28T14:07:16Z</time>
      </trkpt>
      <trkpt lat="46.57916" lon="0.4533">
        <ele>115.761</ele>
        <time>2021-11-28T14:07:21Z</time>
      </trkpt>
      <trkpt lat="46.57917" lon="0.4534">
        <ele>115.739</ele>
        <time>2021-11-28T14:07:29Z</time>
      </trkpt>
      <trkpt lat="46.57918" lon="0.4535">
        <ele>115.717</ele>
        <time>2021-11-28T14:07:36Z</time>
      </trkpt>
      <trkpt lat="46.57919" lon="0.45361">
        <ele>115.696</ele>
        <time>2021-11-28T14:07:43Z</time>
      </trkpt>
      <trkpt lat="46.57921" lon="0.45372">
        <ele>115.671</ele>
        <time>2021-11-28T14:07:49Z</time>
      </trkpt>
      <trkpt lat="46.57922" lon="0.45382">
        <ele>115.645</ele>
        <time>2021-11-28T14:07:55Z</time>
      </trkpt>
      <trkpt lat="46.57924" lon="0.45391">
        <ele>115.618</ele>
        <time>2021-11-28T14:08:02Z</time>
      </trkpt>
      <trkpt lat="46.57923" lon="0.45401">
        <ele>115.59</ele>
        <time>2021-11-28T14:08:11Z</time>
      </trkpt>
      <trkpt lat="46.57923" lon="0.45412">
        <ele>115.556</ele>
        <time>2021-11-28T14:08:23Z</time>
      </trkpt>
      <trkpt lat="46.57923" lon="0.45422">
        <ele>115.539</ele>
        <time>2021-11-28T14:08:30Z</time>
      </trkpt>
      <trkpt lat="46.57922" lon="0.45434">
        <ele>115.51</ele>
        <time>2021-11-28T14:08:37Z</time>
      </trkpt>
      <trkpt lat="46.57919" lon="0.45444">
        <ele>115.475</ele>
        <time>2021-11-28T14:08:44Z</time>
      </trkpt>
      <trkpt lat="46.57918" lon="0.45455">
        <ele>115.442</ele>
        <time>2021-11-28T14:08:51Z</time>
      </trkpt>
      <trkpt lat="46.57917" lon="0.45465">
        <ele>115.419</ele>
        <time>2021-11-28T14:08:56Z</time>
      </trkpt>
      <trkpt lat="46.57919" lon="0.45474">
        <ele>115.397</ele>
        <time>2021-11-28T14:09:01Z</time>
      </trkpt>
      <trkpt lat="46.57922" lon="0.45484">
        <ele>115.374</ele>
        <time>2021-11-28T14:09:06Z</time>
      </trkpt>
      <trkpt lat="46.57923" lon="0.45495">
        <ele>115.345</ele>
        <time>2021-11-28T14:09:12Z</time>
      </trkpt>
      <trkpt lat="46.57926" lon="0.45504">
        <ele>115.309</ele>
        <time>2021-11-28T14:09:19Z</time>
      </trkpt>
      <trkpt lat="46.57929" lon="0.45513">
        <ele>115.265</ele>
        <time>2021-11-28T14:09:27Z</time>
      </trkpt>
      <trkpt lat="46.5793" lon="0.45523">
        <ele>115.214</ele>
        <time>2021-11-28T14:09:36Z</time>
      </trkpt>
      <trkpt lat="46.57931" lon="0.45533">
        <ele>115.161</ele>
        <time>2021-11-28T14:09:46Z</time>
      </trkpt>
      <trkpt lat="46.57934" lon="0.45543">
        <ele>115.136</ele>
        <time>2021-11-28T14:09:54Z</time>
      </trkpt>
      <trkpt lat="46.57937" lon="0.45552">
        <ele>115.124</ele>
        <time>2021-11-28T14:10:00Z</time>
      </trkpt>
      <trkpt lat="46.5794" lon="0.45561">
        <ele>115.111</ele>
        <time>2021-11-28T14:10:07Z</time>
      </trkpt>
      <trkpt lat="46.57942" lon="0.45571">
        <ele>115.101</ele>
        <time>2021-11-28T14:10:16Z</time>
      </trkpt>
      <trkpt lat="46.57945" lon="0.4558">
        <ele>115.099</ele>
        <time>2021-11-28T14:10:24Z</time>
      </trkpt>
      <trkpt lat="46.57948" lon="0.4559">
        <ele>115.101</ele>
        <time>2021-11-28T14:10:31Z</time>
      </trkpt>
      <trkpt lat="46.57949" lon="0.456">
        <ele>115.109</ele>
        <time>2021-11-28T14:10:38Z</time>
      </trkpt>
      <trkpt lat="46.5795" lon="0.4561">
        <ele>115.116</ele>
        <time>2021-11-28T14:10:44Z</time>
      </trkpt>
      <trkpt lat="46.57953" lon="0.45618">
        <ele>115.129</ele>
        <time>2021-11-28T14:10:51Z</time>
      </trkpt>
      <trkpt lat="46.57955" lon="0.45628">
        <ele>115.141</ele>
        <time>2021-11-28T14:10:58Z</time>
      </trkpt>
      <trkpt lat="46.57958" lon="0.45637">
        <ele>115.157</ele>
        <time>2021-11-28T14:11:06Z</time>
      </trkpt>
      <trkpt lat="46.57958" lon="0.45648">
        <ele>115.17</ele>
        <time>2021-11-28T14:11:13Z</time>
      </trkpt>
      <trkpt lat="46.5796" lon="0.45658">
        <ele>115.185</ele>
        <time>2021-11-28T14:11:21Z</time>
      </trkpt>
      <trkpt lat="46.57963" lon="0.45667">
        <ele>115.214</ele>
        <time>2021-11-28T14:11:30Z</time>
      </trkpt>
      <trkpt lat="46.57964" lon="0.45677">
        <ele>115.25</ele>
        <time>2021-11-28T14:11:39Z</time>
      </trkpt>
      <trkpt lat="46.57964" lon="0.45687">
        <ele>115.28</ele>
        <time>2021-11-28T14:11:46Z</time>
      </trkpt>
      <trkpt lat="46.57965" lon="0.45698">
        <ele>115.31</ele>
        <time>2021-11-28T14:11:53Z</time>
      </trkpt>
      <trkpt lat="46.57966" lon="0.45708">
        <ele>115.329</ele>
        <time>2021-11-28T14:11:58Z</time>
      </trkpt>
      <trkpt lat="46.57967" lon="0.45719">
        <ele>115.341</ele>
        <time>2021-11-28T14:12:06Z</time>
      </trkpt>
      <trkpt lat="46.57968" lon="0.45729">
        <ele>115.347</ele>
        <time>2021-11-28T14:12:14Z</time>
      </trkpt>
      <trkpt lat="46.57968" lon="0.45739">
        <ele>115.339</ele>
        <time>2021-11-28T14:12:21Z</time>
      </trkpt>
      <trkpt lat="46.57969" lon="0.4575">
        <ele>115.323</ele>
        <time>2021-11-28T14:12:28Z</time>
      </trkpt>
      <trkpt lat="46.57971" lon="0.45761">
        <ele>115.291</ele>
        <time>2021-11-28T14:12:36Z</time>
      </trkpt>
      <trkpt lat="46.57975" lon="0.4577">
        <ele>115.257</ele>
        <time>2021-11-28T14:12:44Z</time>
      </trkpt>
      <trkpt lat="46.57976" lon="0.4578">
        <ele>115.229</ele>
        <time>2021-11-28T14:12:52Z</time>
      </trkpt>
      <trkpt lat="46.57977" lon="0.45792">
        <ele>115.21</ele>
        <time>2021-11-28T14:13:00Z</time>
      </trkpt>
      <trkpt lat="46.57978" lon="0.45801">
        <ele>115.2</ele>
        <time>2021-11-28T14:13:05Z</time>
      </trkpt>
      <trkpt lat="46.5798" lon="0.45811">
        <ele>115.185</ele>
        <time>2021-11-28T14:13:14Z</time>
      </trkpt>
      <trkpt lat="46.57984" lon="0.45819">
        <ele>115.171</ele>
        <time>2021-11-28T14:13:22Z</time>
      </trkpt>
      <trkpt lat="46.57986" lon="0.45829">
        <ele>115.153</ele>
        <time>2021-11-28T14:13:31Z</time>
      </trkpt>
      <trkpt lat="46.57988" lon="0.45839">
        <ele>115.138</ele>
        <time>2021-11-28T14:13:38Z</time>
      </trkpt>
      <trkpt lat="46.5799" lon="0.4585">
        <ele>115.123</ele>
        <time>2021-11-28T14:13:46Z</time>
      </trkpt>
      <trkpt lat="46.57991" lon="0.45859">
        <ele>115.11</ele>
        <time>2021-11-28T14:13:54Z</time>
      </trkpt>
      <trkpt lat="46.57993" lon="0.45868">
        <ele>115.098</ele>
        <time>2021-11-28T14:14:01Z</time>
      </trkpt>
      <trkpt lat="46.57995" lon="0.45877">
        <ele>115.089</ele>
        <time>2021-11-28T14:14:07Z</time>
      </trkpt>
      <trkpt lat="46.57997" lon="0.45887">
        <ele>115.074</ele>
        <time>2021-11-28T14:14:14Z</time>
      </trkpt>
      <trkpt lat="46.58" lon="0.45896">
        <ele>115.044</ele>
        <time>2021-11-28T14:14:22Z</time>
      </trkpt>
      <trkpt lat="46.58003" lon="0.45906">
        <ele>115.014</ele>
        <time>2021-11-28T14:14:29Z</time>
      </trkpt>
      <trkpt lat="46.58006" lon="0.45915">
        <ele>114.986</ele>
        <time>2021-11-28T14:14:35Z</time>
      </trkpt>
      <trkpt lat="46.58007" lon="0.45925">
        <ele>114.948</ele>
        <time>2021-11-28T14:14:42Z</time>
      </trkpt>
      <trkpt lat="46.58009" lon="0.45935">
        <ele>114.9</ele>
        <time>2021-11-28T14:14:49Z</time>
      </trkpt>
      <trkpt lat="46.58012" lon="0.45943">
        <ele>114.847</ele>
        <time>2021-11-28T14:14:56Z</time>
      </trkpt>
      <trkpt lat="46.58015" lon="0.45953">
        <ele>114.787</ele>
        <time>2021-11-28T14:15:04Z</time>
      </trkpt>
      <trkpt lat="46.58017" lon="0.45963">
        <ele>114.728</ele>
        <time>2021-11-28T14:15:12Z</time>
      </trkpt>
      <trkpt lat="46.58022" lon="0.45972">
        <ele>114.662</ele>
        <time>2021-11-28T14:15:20Z</time>
      </trkpt>
      <trkpt lat="46.58026" lon="0.4598">
        <ele>114.601</ele>
        <time>2021-11-28T14:15:28Z</time>
      </trkpt>
      <trkpt lat="46.58029" lon="0.4599">
        <ele>114.558</ele>
        <time>2021-11-28T14:15:34Z</time>
      </trkpt>
      <trkpt lat="46.58032" lon="0.45999">
        <ele>114.49</ele>
        <time>2021-11-28T14:15:41Z</time>
      </trkpt>
      <trkpt lat="46.58034" lon="0.46009">
        <ele>114.397</ele>
        <time>2021-11-28T14:15:49Z</time>
      </trkpt>
      <trkpt lat="46.58035" lon="0.46019">
        <ele>114.314</ele>
        <time>2021-11-28T14:15:56Z</time>
      </trkpt>
      <trkpt lat="46.58036" lon="0.46029">
        <ele>114.221</ele>
        <time>2021-11-28T14:16:04Z</time>
      </trkpt>
      <trkpt lat="46.58037" lon="0.46039">
        <ele>114.137</ele>
        <time>2021-11-28T14:16:11Z</time>
      </trkpt>
      <trkpt lat="46.58041" lon="0.46046">
        <ele>114.043</ele>
        <time>2021-11-28T14:16:18Z</time>
      </trkpt>
      <trkpt lat="46.58037" lon="0.46056">
        <ele>113.883</ele>
        <time>2021-11-28T14:16:31Z</time>
      </trkpt>
      <trkpt lat="46.58035" lon="0.46066">
        <ele>113.812</ele>
        <time>2021-11-28T14:16:37Z</time>
      </trkpt>
      <trkpt lat="46.58033" lon="0.46075">
        <ele>113.736</ele>
        <time>2021-11-28T14:16:44Z</time>
      </trkpt>
      <trkpt lat="46.58033" lon="0.46086">
        <ele>113.675</ele>
        <time>2021-11-28T14:16:50Z</time>
      </trkpt>
      <trkpt lat="46.58033" lon="0.46096">
        <ele>113.598</ele>
        <time>2021-11-28T14:16:58Z</time>
      </trkpt>
      <trkpt lat="46.58032" lon="0.46106">
        <ele>113.525</ele>
        <time>2021-11-28T14:17:06Z</time>
      </trkpt>
      <trkpt lat="46.58032" lon="0.46117">
        <ele>113.461</ele>
        <time>2021-11-28T14:17:13Z</time>
      </trkpt>
      <trkpt lat="46.58032" lon="0.46126">
        <ele>113.4</ele>
        <time>2021-11-28T14:17:20Z</time>
      </trkpt>
      <trkpt lat="46.58032" lon="0.46137">
        <ele>113.326</ele>
        <time>2021-11-28T14:17:29Z</time>
      </trkpt>
      <trkpt lat="46.58034" lon="0.46147">
        <ele>113.256</ele>
        <time>2021-11-28T14:17:37Z</time>
      </trkpt>
      <trkpt lat="46.58038" lon="0.46155">
        <ele>113.184</ele>
        <time>2021-11-28T14:17:45Z</time>
      </trkpt>
      <trkpt lat="46.58041" lon="0.46164">
        <ele>113.089</ele>
        <time>2021-11-28T14:17:54Z</time>
      </trkpt>
      <trkpt lat="46.58044" lon="0.46173">
        <ele>113.007</ele>
        <time>2021-11-28T14:18:01Z</time>
      </trkpt>
      <trkpt lat="46.58049" lon="0.4618">
        <ele>112.917</ele>
        <time>2021-11-28T14:18:09Z</time>
      </trkpt>
      <trkpt lat="46.58053" lon="0.46187">
        <ele>112.853</ele>
        <time>2021-11-28T14:18:15Z</time>
      </trkpt>
      <trkpt lat="46.58058" lon="0.46194">
        <ele>112.783</ele>
        <time>2021-11-28T14:18:22Z</time>
      </trkpt>
      <trkpt lat="46.58063" lon="0.46201">
        <ele>112.717</ele>
        <time>2021-11-28T14:18:29Z</time>
      </trkpt>
      <trkpt lat="46.58069" lon="0.46207">
        <ele>112.658</ele>
        <time>2021-11-28T14:18:35Z</time>
      </trkpt>
      <trkpt lat="46.58076" lon="0.4621">
        <ele>112.593</ele>
        <time>2021-11-28T14:18:42Z</time>
      </trkpt>
      <trkpt lat="46.58081" lon="0.46215">
        <ele>112.543</ele>
        <time>2021-11-28T14:18:48Z</time>
      </trkpt>
      <trkpt lat="46.58087" lon="0.46221">
        <ele>112.413</ele>
        <time>2021-11-28T14:19:04Z</time>
      </trkpt>
      <trkpt lat="46.58091" lon="0.46228">
        <ele>112.365</ele>
        <time>2021-11-28T14:19:11Z</time>
      </trkpt>
      <trkpt lat="46.58097" lon="0.46234">
        <ele>112.318</ele>
        <time>2021-11-28T14:19:19Z</time>
      </trkpt>
      <trkpt lat="46.58102" lon="0.46241">
        <ele>112.276</ele>
        <time>2021-11-28T14:19:26Z</time>
      </trkpt>
      <trkpt lat="46.58107" lon="0.46248">
        <ele>112.235</ele>
        <time>2021-11-28T14:19:33Z</time>
      </trkpt>
      <trkpt lat="46.58112" lon="0.46256">
        <ele>112.186</ele>
        <time>2021-11-28T14:19:41Z</time>
      </trkpt>
      <trkpt lat="46.58117" lon="0.46263">
        <ele>112.138</ele>
        <time>2021-11-28T14:19:49Z</time>
      </trkpt>
      <trkpt lat="46.58124" lon="0.46269">
        <ele>112.1</ele>
        <time>2021-11-28T14:19:55Z</time>
      </trkpt>
      <trkpt lat="46.58129" lon="0.46276">
        <ele>112.053</ele>
        <time>2021-11-28T14:20:02Z</time>
      </trkpt>
      <trkpt lat="46.58134" lon="0.46283">
        <ele>112.001</ele>
        <time>2021-11-28T14:20:09Z</time>
      </trkpt>
      <trkpt lat="46.5814" lon="0.4629">
        <ele>111.95</ele>
        <time>2021-11-28T14:20:16Z</time>
      </trkpt>
      <trkpt lat="46.58145" lon="0.46297">
        <ele>111.896</ele>
        <time>2021-11-28T14:20:23Z</time>
      </trkpt>
      <trkpt lat="46.5815" lon="0.46304">
        <ele>111.837</ele>
        <time>2021-11-28T14:20:31Z</time>
      </trkpt>
      <trkpt lat="46.58154" lon="0.46312">
        <ele>111.779</ele>
        <time>2021-11-28T14:20:40Z</time>
      </trkpt>
      <trkpt lat="46.5816" lon="0.4632">
        <ele>111.736</ele>
        <time>2021-11-28T14:20:47Z</time>
      </trkpt>
      <trkpt lat="46.58164" lon="0.46328">
        <ele>111.694</ele>
        <time>2021-11-28T14:20:54Z</time>
      </trkpt>
      <trkpt lat="46.58166" lon="0.46338">
        <ele>111.655</ele>
        <time>2021-11-28T14:21:00Z</time>
      </trkpt>
      <trkpt lat="46.58167" lon="0.46347">
        <ele>111.622</ele>
        <time>2021-11-28T14:21:05Z</time>
      </trkpt>
      <trkpt lat="46.58168" lon="0.46357">
        <ele>111.576</ele>
        <time>2021-11-28T14:21:12Z</time>
      </trkpt>
      <trkpt lat="46.58168" lon="0.46367">
        <ele>111.537</ele>
        <time>2021-11-28T14:21:18Z</time>
      </trkpt>
      <trkpt lat="46.58168" lon="0.46377">
        <ele>111.487</ele>
        <time>2021-11-28T14:21:26Z</time>
      </trkpt>
      <trkpt lat="46.58168" lon="0.46387">
        <ele>111.439</ele>
        <time>2021-11-28T14:21:35Z</time>
      </trkpt>
      <trkpt lat="46.58168" lon="0.46398">
        <ele>111.408</ele>
        <time>2021-11-28T14:21:42Z</time>
      </trkpt>
      <trkpt lat="46.58169" lon="0.46407">
        <ele>111.382</ele>
        <time>2021-11-28T14:21:48Z</time>
      </trkpt>
      <trkpt lat="46.58169" lon="0.46418">
        <ele>111.357</ele>
        <time>2021-11-28T14:21:54Z</time>
      </trkpt>
      <trkpt lat="46.58168" lon="0.46428">
        <ele>111.329</ele>
        <time>2021-11-28T14:22:01Z</time>
      </trkpt>
      <trkpt lat="46.5817" lon="0.46438">
        <ele>111.285</ele>
        <time>2021-11-28T14:22:10Z</time>
      </trkpt>
      <trkpt lat="46.58169" lon="0.46449">
        <ele>111.236</ele>
        <time>2021-11-28T14:22:18Z</time>
      </trkpt>
      <trkpt lat="46.58168" lon="0.46459">
        <ele>111.198</ele>
        <time>2021-11-28T14:22:24Z</time>
      </trkpt>
      <trkpt lat="46.58167" lon="0.46469">
        <ele>111.165</ele>
        <time>2021-11-28T14:22:30Z</time>
      </trkpt>
      <trkpt lat="46.58166" lon="0.4648">
        <ele>111.128</ele>
        <time>2021-11-28T14:22:37Z</time>
      </trkpt>
      <trkpt lat="46.58166" lon="0.46489">
        <ele>111.099</ele>
        <time>2021-11-28T14:22:43Z</time>
      </trkpt>
      <trkpt lat="46.58165" lon="0.465">
        <ele>111.067</ele>
        <time>2021-11-28T14:22:51Z</time>
      </trkpt>
      <trkpt lat="46.58163" lon="0.4651">
        <ele>111.043</ele>
        <time>2021-11-28T14:22:59Z</time>
      </trkpt>
      <trkpt lat="46.58161" lon="0.46519">
        <ele>111.033</ele>
        <time>2021-11-28T14:23:06Z</time>
      </trkpt>
      <trkpt lat="46.58157" lon="0.46528">
        <ele>111.035</ele>
        <time>2021-11-28T14:23:15Z</time>
      </trkpt>
      <trkpt lat="46.58154" lon="0.46538">
        <ele>111.037</ele>
        <time>2021-11-28T14:23:21Z</time>
      </trkpt>
      <trkpt lat="46.58152" lon="0.46547">
        <ele>111.038</ele>
        <time>2021-11-28T14:23:28Z</time>
      </trkpt>
      <trkpt lat="46.58149" lon="0.46556">
        <ele>111.041</ele>
        <time>2021-11-28T14:23:35Z</time>
      </trkpt>
      <trkpt lat="46.58146" lon="0.46564">
        <ele>111.039</ele>
        <time>2021-11-28T14:23:42Z</time>
      </trkpt>
      <trkpt lat="46.58143" lon="0.46573">
        <ele>111.037</ele>
        <time>2021-11-28T14:23:48Z</time>
      </trkpt>
      <trkpt lat="46.58141" lon="0.46582">
        <ele>111.033</ele>
        <time>2021-11-28T14:23:54Z</time>
      </trkpt>
      <trkpt lat="46.5814" lon="0.46592">
        <ele>111.027</ele>
        <time>2021-11-28T14:24:01Z</time>
      </trkpt>
      <trkpt lat="46.58138" lon="0.46601">
        <ele>111.022</ele>
        <time>2021-11-28T14:24:08Z</time>
      </trkpt>
      <trkpt lat="46.58134" lon="0.46609">
        <ele>111.013</ele>
        <time>2021-11-28T14:24:18Z</time>
      </trkpt>
      <trkpt lat="46.58127" lon="0.46613">
        <ele>111.005</ele>
        <time>2021-11-28T14:24:27Z</time>
      </trkpt>
      <trkpt lat="46.58121" lon="0.46617">
        <ele>110.995</ele>
        <time>2021-11-28T14:24:34Z</time>
      </trkpt>
      <trkpt lat="46.58115" lon="0.46618">
        <ele>110.991</ele>
        <time>2021-11-28T14:24:40Z</time>
      </trkpt>
      <trkpt lat="46.58108" lon="0.46623">
        <ele>110.986</ele>
        <time>2021-11-28T14:24:46Z</time>
      </trkpt>
      <trkpt lat="46.58101" lon="0.46626">
        <ele>110.982</ele>
        <time>2021-11-28T14:24:53Z</time>
      </trkpt>
      <trkpt lat="46.58094" lon="0.46628">
        <ele>110.982</ele>
        <time>2021-11-28T14:25:01Z</time>
      </trkpt>
      <trkpt lat="46.58088" lon="0.46626">
        <ele>110.994</ele>
        <time>2021-11-28T14:25:09Z</time>
      </trkpt>
      <trkpt lat="46.58082" lon="0.46621">
        <ele>111.002</ele>
        <time>2021-11-28T14:25:16Z</time>
      </trkpt>
      <trkpt lat="46.58076" lon="0.46615">
        <ele>111.019</ele>
        <time>2021-11-28T14:25:24Z</time>
      </trkpt>
      <trkpt lat="46.58072" lon="0.46608">
        <ele>111.043</ele>
        <time>2021-11-28T14:25:32Z</time>
      </trkpt>
      <trkpt lat="46.58067" lon="0.466">
        <ele>111.066</ele>
        <time>2021-11-28T14:25:38Z</time>
      </trkpt>
      <trkpt lat="46.5806" lon="0.46596">
        <ele>111.091</ele>
        <time>2021-11-28T14:25:45Z</time>
      </trkpt>
      <trkpt lat="46.58053" lon="0.46597">
        <ele>111.113</ele>
        <time>2021-11-28T14:25:55Z</time>
      </trkpt>
      <trkpt lat="46.58047" lon="0.46602">
        <ele>111.113</ele>
        <time>2021-11-28T14:26:02Z</time>
      </trkpt>
      <trkpt lat="46.58041" lon="0.46605">
        <ele>111.105</ele>
        <time>2021-11-28T14:26:09Z</time>
      </trkpt>
      <trkpt lat="46.58035" lon="0.4661">
        <ele>111.095</ele>
        <time>2021-11-28T14:26:15Z</time>
      </trkpt>
      <trkpt lat="46.58029" lon="0.46614">
        <ele>111.076</ele>
        <time>2021-11-28T14:26:22Z</time>
      </trkpt>
      <trkpt lat="46.58023" lon="0.46619">
        <ele>111.041</ele>
        <time>2021-11-28T14:26:31Z</time>
      </trkpt>
      <trkpt lat="46.58017" lon="0.46622">
        <ele>111.005</ele>
        <time>2021-11-28T14:26:38Z</time>
      </trkpt>
      <trkpt lat="46.5801" lon="0.46624">
        <ele>110.974</ele>
        <time>2021-11-28T14:26:45Z</time>
      </trkpt>
      <trkpt lat="46.58004" lon="0.46628">
        <ele>110.948</ele>
        <time>2021-11-28T14:26:51Z</time>
      </trkpt>
      <trkpt lat="46.57999" lon="0.46634">
        <ele>110.919</ele>
        <time>2021-11-28T14:26:59Z</time>
      </trkpt>
      <trkpt lat="46.57992" lon="0.46635">
        <ele>110.901</ele>
        <time>2021-11-28T14:27:04Z</time>
      </trkpt>
      <trkpt lat="46.57985" lon="0.46639">
        <ele>110.876</ele>
        <time>2021-11-28T14:27:11Z</time>
      </trkpt>
      <trkpt lat="46.57978" lon="0.46642">
        <ele>110.866</ele>
        <time>2021-11-28T14:27:18Z</time>
      </trkpt>
      <trkpt lat="46.57971" lon="0.46645">
        <ele>110.864</ele>
        <time>2021-11-28T14:27:24Z</time>
      </trkpt>
      <trkpt lat="46.57965" lon="0.46651">
        <ele>110.86</ele>
        <time>2021-11-28T14:27:30Z</time>
      </trkpt>
      <trkpt lat="46.57959" lon="0.46657">
        <ele>110.848</ele>
        <time>2021-11-28T14:27:38Z</time>
      </trkpt>
      <trkpt lat="46.57953" lon="0.46664">
        <ele>110.835</ele>
        <time>2021-11-28T14:27:46Z</time>
      </trkpt>
      <trkpt lat="46.57949" lon="0.46671">
        <ele>110.818</ele>
        <time>2021-11-28T14:27:52Z</time>
      </trkpt>
      <trkpt lat="46.57943" lon="0.46678">
        <ele>110.791</ele>
        <time>2021-11-28T14:28:00Z</time>
      </trkpt>
      <trkpt lat="46.57938" lon="0.46686">
        <ele>110.771</ele>
        <time>2021-11-28T14:28:07Z</time>
      </trkpt>
      <trkpt lat="46.57933" lon="0.46694">
        <ele>110.759</ele>
        <time>2021-11-28T14:28:13Z</time>
      </trkpt>
      <trkpt lat="46.57929" lon="0.46703">
        <ele>110.749</ele>
        <time>2021-11-28T14:28:20Z</time>
      </trkpt>
      <trkpt lat="46.57925" lon="0.46712">
        <ele>110.745</ele>
        <time>2021-11-28T14:28:26Z</time>
      </trkpt>
      <trkpt lat="46.57921" lon="0.4672">
        <ele>110.743</ele>
        <time>2021-11-28T14:28:33Z</time>
      </trkpt>
      <trkpt lat="46.57917" lon="0.46729">
        <ele>110.74</ele>
        <time>2021-11-28T14:28:40Z</time>
      </trkpt>
      <trkpt lat="46.57916" lon="0.46739">
        <ele>110.736</ele>
        <time>2021-11-28T14:28:48Z</time>
      </trkpt>
      <trkpt lat="46.57913" lon="0.46748">
        <ele>110.737</ele>
        <time>2021-11-28T14:28:56Z</time>
      </trkpt>
      <trkpt lat="46.5791" lon="0.46757">
        <ele>110.738</ele>
        <time>2021-11-28T14:29:02Z</time>
      </trkpt>
      <trkpt lat="46.57907" lon="0.46767">
        <ele>110.741</ele>
        <time>2021-11-28T14:29:10Z</time>
      </trkpt>
      <trkpt lat="46.57903" lon="0.46776">
        <ele>110.745</ele>
        <time>2021-11-28T14:29:15Z</time>
      </trkpt>
      <trkpt lat="46.57901" lon="0.46785">
        <ele>110.752</ele>
        <time>2021-11-28T14:29:22Z</time>
      </trkpt>
      <trkpt lat="46.57896" lon="0.46792">
        <ele>110.757</ele>
        <time>2021-11-28T14:29:27Z</time>
      </trkpt>
      <trkpt lat="46.57893" lon="0.46801">
        <ele>110.766</ele>
        <time>2021-11-28T14:29:33Z</time>
      </trkpt>
      <trkpt lat="46.57886" lon="0.468">
        <ele>110.801</ele>
        <time>2021-11-28T14:29:52Z</time>
      </trkpt>
      <trkpt lat="46.5788" lon="0.46798">
        <ele>110.82</ele>
        <time>2021-11-28T14:30:00Z</time>
      </trkpt>
      <trkpt lat="46.57873" lon="0.46797">
        <ele>110.835</ele>
        <time>2021-11-28T14:30:05Z</time>
      </trkpt>
      <trkpt lat="46.57867" lon="0.46795">
        <ele>110.857</ele>
        <time>2021-11-28T14:30:12Z</time>
      </trkpt>
      <trkpt lat="46.5786" lon="0.4679">
        <ele>110.893</ele>
        <time>2021-11-28T14:30:22Z</time>
      </trkpt>
      <trkpt lat="46.57855" lon="0.46784">
        <ele>110.918</ele>
        <time>2021-11-28T14:30:29Z</time>
      </trkpt>
      <trkpt lat="46.57849" lon="0.4678">
        <ele>110.937</ele>
        <time>2021-11-28T14:30:35Z</time>
      </trkpt>
      <trkpt lat="46.57842" lon="0.46779">
        <ele>110.97</ele>
        <time>2021-11-28T14:30:46Z</time>
      </trkpt>
      <trkpt lat="46.57836" lon="0.46774">
        <ele>110.994</ele>
        <time>2021-11-28T14:30:54Z</time>
      </trkpt>
      <trkpt lat="46.5783" lon="0.46768">
        <ele>111.013</ele>
        <time>2021-11-28T14:31:00Z</time>
      </trkpt>
      <trkpt lat="46.57824" lon="0.46762">
        <ele>111.04</ele>
        <time>2021-11-28T14:31:08Z</time>
      </trkpt>
      <trkpt lat="46.57819" lon="0.46755">
        <ele>111.07</ele>
        <time>2021-11-28T14:31:16Z</time>
      </trkpt>
      <trkpt lat="46.57813" lon="0.46748">
        <ele>111.094</ele>
        <time>2021-11-28T14:31:23Z</time>
      </trkpt>
      <trkpt lat="46.57809" lon="0.46741">
        <ele>111.114</ele>
        <time>2021-11-28T14:31:30Z</time>
      </trkpt>
      <trkpt lat="46.57803" lon="0.46735">
        <ele>111.138</ele>
        <time>2021-11-28T14:31:38Z</time>
      </trkpt>
      <trkpt lat="46.57797" lon="0.46731">
        <ele>111.165</ele>
        <time>2021-11-28T14:31:48Z</time>
      </trkpt>
      <trkpt lat="46.57792" lon="0.46724">
        <ele>111.189</ele>
        <time>2021-11-28T14:31:58Z</time>
      </trkpt>
      <trkpt lat="46.57785" lon="0.4672">
        <ele>111.208</ele>
        <time>2021-11-28T14:32:06Z</time>
      </trkpt>
      <trkpt lat="46.57779" lon="0.4672">
        <ele>111.224</ele>
        <time>2021-11-28T14:32:13Z</time>
      </trkpt>
      <trkpt lat="46.57772" lon="0.46725">
        <ele>111.25</ele>
        <time>2021-11-28T14:32:23Z</time>
      </trkpt>
      <trkpt lat="46.5777" lon="0.46734">
        <ele>111.306</ele>
        <time>2021-11-28T14:32:38Z</time>
      </trkpt>
      <trkpt lat="46.57765" lon="0.46743">
        <ele>111.411</ele>
        <time>2021-11-28T14:32:52Z</time>
      </trkpt>
      <trkpt lat="46.57768" lon="0.46734">
        <ele>111.679</ele>
        <time>2021-11-28T14:33:19Z</time>
      </trkpt>
      <trkpt lat="46.57772" lon="0.46724">
        <ele>111.845</ele>
        <time>2021-11-28T14:33:31Z</time>
      </trkpt>
      <trkpt lat="46.57778" lon="0.46718">
        <ele>111.954</ele>
        <time>2021-11-28T14:33:39Z</time>
      </trkpt>
      <trkpt lat="46.57771" lon="0.46721">
        <ele>112.446</ele>
        <time>2021-11-28T14:34:40Z</time>
      </trkpt>
      <trkpt lat="46.57777" lon="0.46718">
        <ele>113.05</ele>
        <time>2021-11-28T14:36:19Z</time>
      </trkpt>
      <trkpt lat="46.57783" lon="0.4671">
        <ele>113.167</ele>
        <time>2021-11-28T14:36:29Z</time>
      </trkpt>
      <trkpt lat="46.5778" lon="0.46701">
        <ele>113.413</ele>
        <time>2021-11-28T14:36:51Z</time>
      </trkpt>
      <trkpt lat="46.57773" lon="0.46699">
        <ele>113.55</ele>
        <time>2021-11-28T14:37:07Z</time>
      </trkpt>
      <trkpt lat="46.57767" lon="0.46696">
        <ele>113.666</ele>
        <time>2021-11-28T14:37:24Z</time>
      </trkpt>
      <trkpt lat="46.5776" lon="0.46691">
        <ele>113.722</ele>
        <time>2021-11-28T14:37:30Z</time>
      </trkpt>
      <trkpt lat="46.57754" lon="0.46686">
        <ele>113.79</ele>
        <time>2021-11-28T14:37:37Z</time>
      </trkpt>
      <trkpt lat="46.57748" lon="0.46681">
        <ele>113.873</ele>
        <time>2021-11-28T14:37:47Z</time>
      </trkpt>
      <trkpt lat="46.57743" lon="0.46675">
        <ele>113.947</ele>
        <time>2021-11-28T14:37:56Z</time>
      </trkpt>
      <trkpt lat="46.57738" lon="0.46669">
        <ele>114.012</ele>
        <time>2021-11-28T14:38:04Z</time>
      </trkpt>
      <trkpt lat="46.57733" lon="0.46663">
        <ele>114.075</ele>
        <time>2021-11-28T14:38:13Z</time>
      </trkpt>
      <trkpt lat="46.57728" lon="0.46657">
        <ele>114.131</ele>
        <time>2021-11-28T14:38:23Z</time>
      </trkpt>
      <trkpt lat="46.57722" lon="0.46651">
        <ele>114.164</ele>
        <time>2021-11-28T14:38:31Z</time>
      </trkpt>
      <trkpt lat="46.57716" lon="0.46648">
        <ele>114.186</ele>
        <time>2021-11-28T14:38:39Z</time>
      </trkpt>
      <trkpt lat="46.57709" lon="0.46643">
        <ele>114.209</ele>
        <time>2021-11-28T14:38:48Z</time>
      </trkpt>
      <trkpt lat="46.57703" lon="0.46638">
        <ele>114.225</ele>
        <time>2021-11-28T14:38:55Z</time>
      </trkpt>
      <trkpt lat="46.57697" lon="0.46633">
        <ele>114.24</ele>
        <time>2021-11-28T14:39:03Z</time>
      </trkpt>
      <trkpt lat="46.5769" lon="0.4663">
        <ele>114.252</ele>
        <time>2021-11-28T14:39:10Z</time>
      </trkpt>
      <trkpt lat="46.57684" lon="0.46626">
        <ele>114.266</ele>
        <time>2021-11-28T14:39:17Z</time>
      </trkpt>
      <trkpt lat="46.57677" lon="0.46621">
        <ele>114.278</ele>
        <time>2021-11-28T14:39:24Z</time>
      </trkpt>
      <trkpt lat="46.57669" lon="0.46626">
        <ele>114.305</ele>
        <time>2021-11-28T14:39:29Z</time>
      </trkpt>
      <trkpt lat="46.57662" lon="0.46624">
        <ele>114.363</ele>
        <time>2021-11-28T14:39:37Z</time>
      </trkpt>
      <trkpt lat="46.57655" lon="0.4662">
        <ele>114.413</ele>
        <time>2021-11-28T14:39:44Z</time>
      </trkpt>
      <trkpt lat="46.57649" lon="0.46618">
        <ele>114.447</ele>
        <time>2021-11-28T14:39:49Z</time>
      </trkpt>
      <trkpt lat="46.57641" lon="0.46616">
        <ele>114.511</ele>
        <time>2021-11-28T14:39:59Z</time>
      </trkpt>
      <trkpt lat="46.57634" lon="0.46614">
        <ele>114.577</ele>
        <time>2021-11-28T14:40:07Z</time>
      </trkpt>
      <trkpt lat="46.57627" lon="0.4661">
        <ele>114.639</ele>
        <time>2021-11-28T14:40:14Z</time>
      </trkpt>
      <trkpt lat="46.5762" lon="0.46606">
        <ele>114.698</ele>
        <time>2021-11-28T14:40:20Z</time>
      </trkpt>
      <trkpt lat="46.57614" lon="0.46601">
        <ele>114.776</ele>
        <time>2021-11-28T14:40:27Z</time>
      </trkpt>
      <trkpt lat="46.57607" lon="0.46597">
        <ele>114.846</ele>
        <time>2021-11-28T14:40:33Z</time>
      </trkpt>
      <trkpt lat="46.57601" lon="0.46593">
        <ele>114.936</ele>
        <time>2021-11-28T14:40:41Z</time>
      </trkpt>
      <trkpt lat="46.57594" lon="0.4659">
        <ele>115.016</ele>
        <time>2021-11-28T14:40:48Z</time>
      </trkpt>
      <trkpt lat="46.57586" lon="0.4659">
        <ele>115.114</ele>
        <time>2021-11-28T14:40:55Z</time>
      </trkpt>
      <trkpt lat="46.57579" lon="0.46588">
        <ele>115.208</ele>
        <time>2021-11-28T14:41:02Z</time>
      </trkpt>
      <trkpt lat="46.57572" lon="0.46587">
        <ele>115.302</ele>
        <time>2021-11-28T14:41:09Z</time>
      </trkpt>
      <trkpt lat="46.57566" lon="0.46583">
        <ele>115.397</ele>
        <time>2021-11-28T14:41:15Z</time>
      </trkpt>
      <trkpt lat="46.5756" lon="0.46578">
        <ele>115.506</ele>
        <time>2021-11-28T14:41:21Z</time>
      </trkpt>
      <trkpt lat="46.57553" lon="0.46575">
        <ele>115.646</ele>
        <time>2021-11-28T14:41:28Z</time>
      </trkpt>
      <trkpt lat="46.57547" lon="0.46571">
        <ele>115.777</ele>
        <time>2021-11-28T14:41:34Z</time>
      </trkpt>
      <trkpt lat="46.57541" lon="0.46566">
        <ele>115.934</ele>
        <time>2021-11-28T14:41:40Z</time>
      </trkpt>
      <trkpt lat="46.57535" lon="0.46561">
        <ele>116.121</ele>
        <time>2021-11-28T14:41:47Z</time>
      </trkpt>
      <trkpt lat="46.57529" lon="0.46558">
        <ele>116.326</ele>
        <time>2021-11-28T14:41:55Z</time>
      </trkpt>
      <trkpt lat="46.57523" lon="0.46553">
        <ele>116.495</ele>
        <time>2021-11-28T14:42:02Z</time>
      </trkpt>
      <trkpt lat="46.57517" lon="0.46549">
        <ele>116.65</ele>
        <time>2021-11-28T14:42:09Z</time>
      </trkpt>
      <trkpt lat="46.57511" lon="0.46545">
        <ele>116.793</ele>
        <time>2021-11-28T14:42:16Z</time>
      </trkpt>
      <trkpt lat="46.57504" lon="0.46542">
        <ele>116.927</ele>
        <time>2021-11-28T14:42:23Z</time>
      </trkpt>
      <trkpt lat="46.57497" lon="0.46539">
        <ele>117.053</ele>
        <time>2021-11-28T14:42:30Z</time>
      </trkpt>
      <trkpt lat="46.5749" lon="0.46538">
        <ele>117.172</ele>
        <time>2021-11-28T14:42:37Z</time>
      </trkpt>
      <trkpt lat="46.57483" lon="0.46535">
        <ele>117.282</ele>
        <time>2021-11-28T14:42:44Z</time>
      </trkpt>
      <trkpt lat="46.57476" lon="0.46533">
        <ele>117.398</ele>
        <time>2021-11-28T14:42:52Z</time>
      </trkpt>
      <trkpt lat="46.57469" lon="0.4653">
        <ele>117.483</ele>
        <time>2021-11-28T14:42:58Z</time>
      </trkpt>
      <trkpt lat="46.57462" lon="0.46528">
        <ele>117.567</ele>
        <time>2021-11-28T14:43:04Z</time>
      </trkpt>
      <trkpt lat="46.57455" lon="0.46527">
        <ele>117.66</ele>
        <time>2021-11-28T14:43:10Z</time>
      </trkpt>
      <trkpt lat="46.57448" lon="0.46525">
        <ele>117.754</ele>
        <time>2021-11-28T14:43:16Z</time>
      </trkpt>
      <trkpt lat="46.57441" lon="0.46524">
        <ele>117.868</ele>
        <time>2021-11-28T14:43:24Z</time>
      </trkpt>
      <trkpt lat="46.57434" lon="0.46523">
        <ele>117.979</ele>
        <time>2021-11-28T14:43:32Z</time>
      </trkpt>
      <trkpt lat="46.57427" lon="0.46524">
        <ele>118.09</ele>
        <time>2021-11-28T14:43:40Z</time>
      </trkpt>
      <trkpt lat="46.5742" lon="0.46524">
        <ele>118.193</ele>
        <time>2021-11-28T14:43:48Z</time>
      </trkpt>
      <trkpt lat="46.57413" lon="0.46526">
        <ele>118.289</ele>
        <time>2021-11-28T14:43:56Z</time>
      </trkpt>
      <trkpt lat="46.57406" lon="0.46528">
        <ele>118.381</ele>
        <time>2021-11-28T14:44:04Z</time>
      </trkpt>
      <trkpt lat="46.57399" lon="0.46529">
        <ele>118.472</ele>
        <time>2021-11-28T14:44:12Z</time>
      </trkpt>
      <trkpt lat="46.57393" lon="0.46531">
        <ele>118.565</ele>
        <time>2021-11-28T14:44:20Z</time>
      </trkpt>
      <trkpt lat="46.57386" lon="0.46534">
        <ele>118.646</ele>
        <time>2021-11-28T14:44:27Z</time>
      </trkpt>
      <trkpt lat="46.5738" lon="0.46538">
        <ele>118.715</ele>
        <time>2021-11-28T14:44:33Z</time>
      </trkpt>
      <trkpt lat="46.57374" lon="0.46543">
        <ele>118.81</ele>
        <time>2021-11-28T14:44:41Z</time>
      </trkpt>
      <trkpt lat="46.57368" lon="0.46547">
        <ele>118.901</ele>
        <time>2021-11-28T14:44:49Z</time>
      </trkpt>
      <trkpt lat="46.57362" lon="0.46552">
        <ele>118.972</ele>
        <time>2021-11-28T14:44:56Z</time>
      </trkpt>
      <trkpt lat="46.57355" lon="0.46557">
        <ele>119.034</ele>
        <time>2021-11-28T14:45:03Z</time>
      </trkpt>
      <trkpt lat="46.57349" lon="0.46562">
        <ele>119.095</ele>
        <time>2021-11-28T14:45:11Z</time>
      </trkpt>
      <trkpt lat="46.57343" lon="0.46567">
        <ele>119.143</ele>
        <time>2021-11-28T14:45:19Z</time>
      </trkpt>
      <trkpt lat="46.57337" lon="0.46572">
        <ele>119.173</ele>
        <time>2021-11-28T14:45:26Z</time>
      </trkpt>
      <trkpt lat="46.5733" lon="0.46577">
        <ele>119.191</ele>
        <time>2021-11-28T14:45:34Z</time>
      </trkpt>
      <trkpt lat="46.57324" lon="0.46582">
        <ele>119.198</ele>
        <time>2021-11-28T14:45:42Z</time>
      </trkpt>
      <trkpt lat="46.57317" lon="0.46585">
        <ele>119.193</ele>
        <time>2021-11-28T14:45:50Z</time>
      </trkpt>
      <trkpt lat="46.5731" lon="0.46584">
        <ele>119.178</ele>
        <time>2021-11-28T14:45:57Z</time>
      </trkpt>
      <trkpt lat="46.57303" lon="0.46583">
        <ele>119.157</ele>
        <time>2021-11-28T14:46:05Z</time>
      </trkpt>
      <trkpt lat="46.57297" lon="0.46579">
        <ele>119.144</ele>
        <time>2021-11-28T14:46:11Z</time>
      </trkpt>
      <trkpt lat="46.5729" lon="0.4658">
        <ele>119.132</ele>
        <time>2021-11-28T14:46:18Z</time>
      </trkpt>
      <trkpt lat="46.57284" lon="0.46574">
        <ele>119.124</ele>
        <time>2021-11-28T14:46:25Z</time>
      </trkpt>
      <trkpt lat="46.57278" lon="0.46568">
        <ele>119.119</ele>
        <time>2021-11-28T14:46:33Z</time>
      </trkpt>
      <trkpt lat="46.57273" lon="0.46561">
        <ele>119.119</ele>
        <time>2021-11-28T14:46:39Z</time>
      </trkpt>
      <trkpt lat="46.57268" lon="0.46552">
        <ele>119.124</ele>
        <time>2021-11-28T14:46:47Z</time>
      </trkpt>
      <trkpt lat="46.57263" lon="0.46545">
        <ele>119.129</ele>
        <time>2021-11-28T14:46:54Z</time>
      </trkpt>
      <trkpt lat="46.57258" lon="0.46537">
        <ele>119.133</ele>
        <time>2021-11-28T14:47:00Z</time>
      </trkpt>
      <trkpt lat="46.57253" lon="0.46531">
        <ele>119.139</ele>
        <time>2021-11-28T14:47:08Z</time>
      </trkpt>
      <trkpt lat="46.57248" lon="0.46524">
        <ele>119.148</ele>
        <time>2021-11-28T14:47:16Z</time>
      </trkpt>
      <trkpt lat="46.57242" lon="0.46518">
        <ele>119.156</ele>
        <time>2021-11-28T14:47:23Z</time>
      </trkpt>
      <trkpt lat="46.57237" lon="0.46512">
        <ele>119.166</ele>
        <time>2021-11-28T14:47:30Z</time>
      </trkpt>
      <trkpt lat="46.57232" lon="0.46505">
        <ele>119.178</ele>
        <time>2021-11-28T14:47:37Z</time>
      </trkpt>
      <trkpt lat="46.57226" lon="0.465">
        <ele>119.197</ele>
        <time>2021-11-28T14:47:44Z</time>
      </trkpt>
      <trkpt lat="46.5722" lon="0.46495">
        <ele>119.222</ele>
        <time>2021-11-28T14:47:51Z</time>
      </trkpt>
      <trkpt lat="46.57213" lon="0.46492">
        <ele>119.251</ele>
        <time>2021-11-28T14:47:57Z</time>
      </trkpt>
      <trkpt lat="46.57207" lon="0.46485">
        <ele>119.28</ele>
        <time>2021-11-28T14:48:04Z</time>
      </trkpt>
      <trkpt lat="46.57202" lon="0.46478">
        <ele>119.303</ele>
        <time>2021-11-28T14:48:12Z</time>
      </trkpt>
      <trkpt lat="46.57197" lon="0.46471">
        <ele>119.332</ele>
        <time>2021-11-28T14:48:22Z</time>
      </trkpt>
      <trkpt lat="46.57191" lon="0.46466">
        <ele>119.349</ele>
        <time>2021-11-28T14:48:28Z</time>
      </trkpt>
      <trkpt lat="46.57185" lon="0.4646">
        <ele>119.364</ele>
        <time>2021-11-28T14:48:35Z</time>
      </trkpt>
      <trkpt lat="46.57179" lon="0.46454">
        <ele>119.377</ele>
        <time>2021-11-28T14:48:43Z</time>
      </trkpt>
      <trkpt lat="46.57174" lon="0.46448">
        <ele>119.387</ele>
        <time>2021-11-28T14:48:50Z</time>
      </trkpt>
      <trkpt lat="46.57168" lon="0.46442">
        <ele>119.406</ele>
        <time>2021-11-28T14:48:59Z</time>
      </trkpt>
      <trkpt lat="46.57162" lon="0.46435">
        <ele>119.42</ele>
        <time>2021-11-28T14:49:06Z</time>
      </trkpt>
      <trkpt lat="46.57157" lon="0.46429">
        <ele>119.436</ele>
        <time>2021-11-28T14:49:13Z</time>
      </trkpt>
      <trkpt lat="46.57151" lon="0.46423">
        <ele>119.461</ele>
        <time>2021-11-28T14:49:21Z</time>
      </trkpt>
      <trkpt lat="46.57144" lon="0.46421">
        <ele>119.486</ele>
        <time>2021-11-28T14:49:28Z</time>
      </trkpt>
      <trkpt lat="46.57138" lon="0.46423">
        <ele>119.542</ele>
        <time>2021-11-28T14:50:15Z</time>
      </trkpt>
      <trkpt lat="46.57131" lon="0.46428">
        <ele>119.562</ele>
        <time>2021-11-28T14:50:22Z</time>
      </trkpt>
      <trkpt lat="46.57129" lon="0.46437">
        <ele>119.584</ele>
        <time>2021-11-28T14:50:29Z</time>
      </trkpt>
      <trkpt lat="46.57127" lon="0.46447">
        <ele>119.605</ele>
        <time>2021-11-28T14:50:36Z</time>
      </trkpt>
      <trkpt lat="46.57126" lon="0.46457">
        <ele>119.629</ele>
        <time>2021-11-28T14:50:45Z</time>
      </trkpt>
      <trkpt lat="46.57125" lon="0.46467">
        <ele>119.644</ele>
        <time>2021-11-28T14:50:51Z</time>
      </trkpt>
      <trkpt lat="46.57123" lon="0.46476">
        <ele>119.659</ele>
        <time>2021-11-28T14:50:57Z</time>
      </trkpt>
      <trkpt lat="46.57122" lon="0.46486">
        <ele>119.676</ele>
        <time>2021-11-28T14:51:04Z</time>
      </trkpt>
      <trkpt lat="46.57119" lon="0.46494">
        <ele>119.688</ele>
        <time>2021-11-28T14:51:11Z</time>
      </trkpt>
      <trkpt lat="46.57115" lon="0.46502">
        <ele>119.699</ele>
        <time>2021-11-28T14:51:19Z</time>
      </trkpt>
      <trkpt lat="46.57109" lon="0.46508">
        <ele>119.704</ele>
        <time>2021-11-28T14:51:27Z</time>
      </trkpt>
      <trkpt lat="46.57104" lon="0.46513">
        <ele>119.705</ele>
        <time>2021-11-28T14:51:35Z</time>
      </trkpt>
      <trkpt lat="46.57098" lon="0.46519">
        <ele>119.704</ele>
        <time>2021-11-28T14:51:43Z</time>
      </trkpt>
      <trkpt lat="46.57092" lon="0.46525">
        <ele>119.703</ele>
        <time>2021-11-28T14:51:51Z</time>
      </trkpt>
      <trkpt lat="46.57085" lon="0.46524">
        <ele>119.704</ele>
        <time>2021-11-28T14:52:03Z</time>
      </trkpt>
      <trkpt lat="46.57078" lon="0.46523">
        <ele>119.722</ele>
        <time>2021-11-28T14:52:17Z</time>
      </trkpt>
      <trkpt lat="46.57071" lon="0.46519">
        <ele>119.732</ele>
        <time>2021-11-28T14:52:25Z</time>
      </trkpt>
      <trkpt lat="46.57064" lon="0.46516">
        <ele>119.743</ele>
        <time>2021-11-28T14:52:32Z</time>
      </trkpt>
      <trkpt lat="46.57057" lon="0.46513">
        <ele>119.754</ele>
        <time>2021-11-28T14:52:39Z</time>
      </trkpt>
      <trkpt lat="46.57051" lon="0.46511">
        <ele>119.761</ele>
        <time>2021-11-28T14:52:45Z</time>
      </trkpt>
      <trkpt lat="46.57045" lon="0.46522">
        <ele>115</ele>
      </trkpt>
      <trkpt lat="46.57026" lon="0.46504">
        <ele>115</ele>
      </trkpt>
    </trkseg>
  </trk>
</gpx>